Observation data for Claude 12 Southwest on 07/18/2019      Previous  Date  Next       Current Mesonet Observations  Soil Data  Daily Summary Page  Observations in Plain Language
KCL1 180500Z 17014KT 29/16 A2998 RMK A01 T02850156  RH  046%=      5-min Rain = 0
KCL1 180501Z 16014G19KT 29/16 A2998 RMK A01 T02860157  RH  046%=      5-min Rain = 0
KCL1 180502Z 17012G17KT 29/16 A2998 RMK A01 T02850158  RH  046%=      5-min Rain = 0
KCL1 180503Z 16012KT 29/16 A2999 RMK A01 T02850158  RH  046%=      5-min Rain = 0
KCL1 180504Z 17013KT 29/16 A2999 RMK A01 T02850158  RH  046%=      5-min Rain = 0
KCL1 180505Z 16011KT 28/16 A2999 RMK A01 T02840158  RH  046%=      5-min Rain = 0
KCL1 180506Z 16014KT 28/16 A2999 RMK A01 T02840159  RH  047%=      5-min Rain = 0
KCL1 180507Z 17009KT 28/16 A2999 RMK A01 T02840159  RH  047%=      5-min Rain = 0
KCL1 180508Z 16012KT 28/16 A2999 RMK A01 T02830159  RH  047%=      5-min Rain = 0
KCL1 180509Z 16010KT 28/16 A2999 RMK A01 T02830160  RH  047%=      5-min Rain = 0
KCL1 180510Z 16013KT 28/16 A2999 RMK A01 T02820160  RH  047%=      5-min Rain = 0
KCL1 180511Z 16012KT 28/16 A2999 RMK A01 T02820160  RH  048%=      5-min Rain = 0
KCL1 180512Z 16014KT 28/16 A2999 RMK A01 T02810160  RH  048%=      5-min Rain = 0
KCL1 180513Z 16013KT 28/16 A2999 RMK A01 T02810160  RH  048%=      5-min Rain = 0
KCL1 180514Z 15016KT 28/16 A2998 RMK A01 T02810161  RH  048%=      5-min Rain = 0
KCL1 180515Z 16014KT 28/16 A2999 RMK A01 T02820161  RH  048%=      5-min Rain = 0
KCL1 180516Z 16014KT 28/16 A2999 RMK A01 T02820161  RH  048%=      5-min Rain = 0
KCL1 180517Z 16012KT 28/16 A2999 RMK A01 T02820161  RH  048%=      5-min Rain = 0
KCL1 180518Z 17012KT 28/16 A2999 RMK A01 T02820161  RH  048%=      5-min Rain = 0
KCL1 180519Z 16014G20KT 28/16 A2999 RMK A01 T02820161  RH  048%=      5-min Rain = 0
KCL1 180520Z 15014G20KT 28/16 A2999 RMK A01 T02810161  RH  048%=      5-min Rain = 0
KCL1 180521Z 16015G20KT 28/16 A2999 RMK A01 T02810161  RH  048%=      5-min Rain = 0
KCL1 180522Z 17014KT 28/16 A2999 RMK A01 T02820162  RH  048%=      5-min Rain = 0
KCL1 180523Z 17013G18KT 28/16 A2999 RMK A01 T02820161  RH  048%=      5-min Rain = 0
KCL1 180524Z 18009KT 28/16 A2999 RMK A01 T02820161  RH  048%=      5-min Rain = 0
KCL1 180525Z 16011G17KT 28/16 A2999 RMK A01 T02820161  RH  048%=      5-min Rain = 0
KCL1 180526Z 16015KT 28/16 A2999 RMK A01 T02810161  RH  048%=      5-min Rain = 0
KCL1 180527Z 15015KT 28/16 A2999 RMK A01 T02810161  RH  048%=      5-min Rain = 0
KCL1 180528Z 15015KT 28/16 A2999 RMK A01 T02810161  RH  048%=      5-min Rain = 0
KCL1 180529Z 17012KT 28/16 A2999 RMK A01 T02810161  RH  048%=      5-min Rain = 0
KCL1 180530Z 16015KT 28/16 A2999 RMK A01 T02810161  RH  048%=      5-min Rain = 0
KCL1 180531Z 17012KT 28/16 A2999 RMK A01 T02810161  RH  048%=      5-min Rain = 0
KCL1 180532Z 17009KT 28/16 A2999 RMK A01 T02810161  RH  048%=      5-min Rain = 0
KCL1 180533Z 17014KT 28/16 A2999 RMK A01 T02810161  RH  048%=      5-min Rain = 0
KCL1 180534Z 16013KT 28/16 A2999 RMK A01 T02800160  RH  048%=      5-min Rain = 0
KCL1 180535Z 16011KT 28/16 A2999 RMK A01 T02800160  RH  048%=      5-min Rain = 0
KCL1 180536Z 16012KT 28/16 A2999 RMK A01 T02810160  RH  048%=      5-min Rain = 0
KCL1 180537Z 16014KT 28/16 A2999 RMK A01 T02800160  RH  048%=      5-min Rain = 0
KCL1 180538Z 17015G21KT 28/16 A2999 RMK A01 T02800160  RH  048%=      5-min Rain = 0
KCL1 180539Z 16012KT 28/16 A2999 RMK A01 T02810160  RH  048%=      5-min Rain = 0
KCL1 180540Z 16010G16KT 28/16 A2999 RMK A01 T02810160  RH  048%=      5-min Rain = 0
KCL1 180541Z 16013KT 28/16 A2999 RMK A01 T02800160  RH  048%=      5-min Rain = 0
KCL1 180542Z 17012G17KT 28/16 A2999 RMK A01 T02800160  RH  048%=      5-min Rain = 0
KCL1 180543Z 17008KT 28/16 A2999 RMK A01 T02800159  RH  048%=      5-min Rain = 0
KCL1 180544Z 17013KT 28/16 A2999 RMK A01 T02790159  RH  048%=      5-min Rain = 0
KCL1 180545Z 18008KT 28/16 A2999 RMK A01 T02790159  RH  048%=      5-min Rain = 0
KCL1 180546Z 16011G16KT 28/16 A2999 RMK A01 T02790158  RH  048%=      5-min Rain = 0
KCL1 180547Z 17012KT 28/16 A2999 RMK A01 T02790157  RH  048%=      5-min Rain = 0
KCL1 180548Z 17014KT 28/16 A2999 RMK A01 T02800157  RH  047%=      5-min Rain = 0
KCL1 180549Z 16017G23KT 28/16 A2999 RMK A01 T02800157  RH  047%=      5-min Rain = 0
KCL1 180550Z 19009KT 28/16 A2999 RMK A01 T02810157  RH  047%=      5-min Rain = 0
KCL1 180551Z 17012G17KT 28/16 A2999 RMK A01 T02810158  RH  047%=      5-min Rain = 0
KCL1 180552Z 17013KT 28/16 A2999 RMK A01 T02810158  RH  047%=      5-min Rain = 0
KCL1 180553Z 16010KT 28/16 A2999 RMK A01 T02800157  RH  047%=      5-min Rain = 0
KCL1 180554Z 18009KT 28/16 A2999 RMK A01 T02800157  RH  047%=      5-min Rain = 0
KCL1 180555Z 16007KT 28/16 A2999 RMK A01 T02800158  RH  047%=      5-min Rain = 0
KCL1 180556Z 18008G14KT 28/16 A2999 RMK A01 T02790157  RH  048%=      5-min Rain = 0
KCL1 180557Z 18012KT 28/16 A2999 RMK A01 T02780157  RH  048%=      5-min Rain = 0
KCL1 180558Z 17011KT 28/16 A2999 RMK A01 T02780157  RH  048%=      5-min Rain = 0
KCL1 180559Z 17009KT 28/16 A2999 RMK A01 T02780157  RH  048%=      5-min Rain = 0
KCL1 180600Z 17011G17KT 28/16 A2999 RMK A01 T02780157  RH  048%=      5-min Rain = 0
KCL1 180601Z 16011KT 28/16 A2999 RMK A01 T02780157  RH  048%=      5-min Rain = 0
KCL1 180602Z 18010KT 28/16 A2999 RMK A01 T02780156  RH  047%=      5-min Rain = 0
KCL1 180603Z 19009KT 28/16 A2999 RMK A01 T02780156  RH  047%=      5-min Rain = 0
KCL1 180604Z 17009KT 28/16 A2999 RMK A01 T02780156  RH  047%=      5-min Rain = 0
KCL1 180605Z 17008KT 28/16 A2999 RMK A01 T02780156  RH  047%=      5-min Rain = 0
KCL1 180606Z 17008KT 28/16 A2999 RMK A01 T02780156  RH  047%=      5-min Rain = 0
KCL1 180607Z 17011KT 28/16 A2999 RMK A01 T02770156  RH  048%=      5-min Rain = 0
KCL1 180608Z 17011KT 28/16 A2999 RMK A01 T02770156  RH  048%=      5-min Rain = 0
KCL1 180609Z 17011KT 28/16 A2999 RMK A01 T02770155  RH  048%=      5-min Rain = 0
KCL1 180610Z 17010KT 28/16 A2999 RMK A01 T02770156  RH  048%=      5-min Rain = 0
KCL1 180611Z 17009KT 28/16 A2999 RMK A01 T02770156  RH  048%=      5-min Rain = 0
KCL1 180612Z 16007KT 28/16 A2999 RMK A01 T02760155  RH  048%=      5-min Rain = 0
KCL1 180613Z 17012KT 28/16 A2999 RMK A01 T02760155  RH  048%=      5-min Rain = 0
KCL1 180614Z 16012KT 28/16 A2999 RMK A01 T02760155  RH  048%=      5-min Rain = 0
KCL1 180615Z 16010KT 28/15 A2999 RMK A01 T02760154  RH  048%=      5-min Rain = 0
KCL1 180616Z 16012KT 28/16 A2999 RMK A01 T02760155  RH  048%=      5-min Rain = 0
KCL1 180617Z 16011KT 28/16 A2999 RMK A01 T02760155  RH  048%=      5-min Rain = 0
KCL1 180618Z 16011G17KT 28/16 A2999 RMK A01 T02750155  RH  048%=      5-min Rain = 0
KCL1 180619Z 16013KT 28/16 A2999 RMK A01 T02750155  RH  048%=      5-min Rain = 0
KCL1 180620Z 16009KT 28/15 A2999 RMK A01 T02750154  RH  048%=      5-min Rain = 0
KCL1 180621Z 17013G18KT 28/16 A2999 RMK A01 T02750155  RH  048%=      5-min Rain = 0
KCL1 180622Z 16013KT 28/15 A2999 RMK A01 T02750154  RH  048%=      5-min Rain = 0
KCL1 180623Z 16011KT 28/15 A2999 RMK A01 T02750153  RH  048%=      5-min Rain = 0
KCL1 180624Z 16010KT 28/15 A2999 RMK A01 T02750154  RH  047%=      5-min Rain = 0
KCL1 180625Z 16012KT 28/15 A2999 RMK A01 T02750154  RH  047%=      5-min Rain = 0
KCL1 180626Z 17008KT 28/15 A2999 RMK A01 T02750154  RH  048%=      5-min Rain = 0
KCL1 180627Z 17009KT 28/15 A2999 RMK A01 T02750154  RH  048%=      5-min Rain = 0
KCL1 180628Z 17013KT 27/15 A2999 RMK A01 T02740154  RH  048%=      5-min Rain = 0
KCL1 180629Z 17011KT 28/15 A2999 RMK A01 T02750153  RH  047%=      5-min Rain = 0
KCL1 180630Z 16008KT 28/15 A2999 RMK A01 T02750153  RH  047%=      5-min Rain = 0
KCL1 180631Z 17008KT 28/15 A2999 RMK A01 T02750154  RH  048%=      5-min Rain = 0
KCL1 180632Z 17008KT 27/15 A2999 RMK A01 T02740154  RH  048%=      5-min Rain = 0
KCL1 180633Z 17008KT 27/15 A2999 RMK A01 T02730154  RH  048%=      5-min Rain = 0
KCL1 180634Z 17007KT 27/15 A2999 RMK A01 T02730154  RH  048%=      5-min Rain = 0
KCL1 180635Z 17013G18KT 27/15 A2998 RMK A01 T02720154  RH  048%=      5-min Rain = 0
KCL1 180636Z 17010KT 27/15 A2998 RMK A01 T02720153  RH  048%=      5-min Rain = 0
KCL1 180637Z 16009KT 27/15 A2998 RMK A01 T02730153  RH  048%=      5-min Rain = 0
KCL1 180638Z 16010KT 27/15 A2998 RMK A01 T02730153  RH  048%=      5-min Rain = 0
KCL1 180639Z 17010KT 27/15 A2998 RMK A01 T02730153  RH  048%=      5-min Rain = 0
KCL1 180640Z 17014KT 27/15 A2998 RMK A01 T02720153  RH  048%=      5-min Rain = 0
KCL1 180641Z 17010KT 27/15 A2998 RMK A01 T02720153  RH  048%=      5-min Rain = 0
KCL1 180642Z 17009KT 27/15 A2998 RMK A01 T02730153  RH  048%=      5-min Rain = 0
KCL1 180643Z 17011KT 27/15 A2998 RMK A01 T02730153  RH  048%=      5-min Rain = 0
KCL1 180644Z 17011KT 27/15 A2998 RMK A01 T02720153  RH  048%=      5-min Rain = 0
KCL1 180645Z 18010KT 27/15 A2998 RMK A01 T02720153  RH  048%=      5-min Rain = 0
KCL1 180646Z 18011KT 27/15 A2998 RMK A01 T02720153  RH  048%=      5-min Rain = 0
KCL1 180647Z 19010KT 27/15 A2998 RMK A01 T02720153  RH  048%=      5-min Rain = 0
KCL1 180648Z 18011KT 27/15 A2998 RMK A01 T02730153  RH  048%=      5-min Rain = 0
KCL1 180649Z 18011KT 27/15 A2998 RMK A01 T02720153  RH  048%=      5-min Rain = 0
KCL1 180650Z 18012KT 27/15 A2998 RMK A01 T02720153  RH  048%=      5-min Rain = 0
KCL1 180651Z 17009KT 27/15 A2998 RMK A01 T02730153  RH  048%=      5-min Rain = 0
KCL1 180652Z 18008KT 27/15 A2998 RMK A01 T02720153  RH  048%=      5-min Rain = 0
KCL1 180653Z 17009KT 27/15 A2998 RMK A01 T02720153  RH  048%=      5-min Rain = 0
KCL1 180654Z 18009KT 27/15 A2999 RMK A01 T02710153  RH  048%=      5-min Rain = 0
KCL1 180655Z 18011KT 27/15 A2999 RMK A01 T02710153  RH  048%=      5-min Rain = 0
KCL1 180656Z 17011KT 27/15 A2999 RMK A01 T02710153  RH  048%=      5-min Rain = 0
KCL1 180657Z 18007KT 27/15 A2999 RMK A01 T02710153  RH  048%=      5-min Rain = 0
KCL1 180658Z 18008KT 27/15 A2998 RMK A01 T02710153  RH  049%=      5-min Rain = 0
KCL1 180659Z 17009KT 27/15 A2999 RMK A01 T02700153  RH  049%=      5-min Rain = 0
KCL1 180700Z 18008KT 27/15 A2998 RMK A01 T02690153  RH  049%=      5-min Rain = 0
KCL1 180701Z 17011KT 27/15 A2998 RMK A01 T02690153  RH  049%=      5-min Rain = 0
KCL1 180702Z 17012KT 27/15 A2998 RMK A01 T02690153  RH  049%=      5-min Rain = 0
KCL1 180703Z 17012G17KT 27/15 A2998 RMK A01 T02700153  RH  049%=      5-min Rain = 0
KCL1 180704Z 17014KT 27/15 A2998 RMK A01 T02690152  RH  049%=      5-min Rain = 0
KCL1 180705Z 17012KT 27/15 A2998 RMK A01 T02700153  RH  049%=      5-min Rain = 0
KCL1 180706Z 17011KT 27/15 A2998 RMK A01 T02700153  RH  049%=      5-min Rain = 0
KCL1 180707Z 16012KT 27/15 A2998 RMK A01 T02700153  RH  049%=      5-min Rain = 0
KCL1 180708Z 17014KT 27/15 A2998 RMK A01 T02700153  RH  049%=      5-min Rain = 0
KCL1 180709Z 16012KT 27/15 A2998 RMK A01 T02700152  RH  049%=      5-min Rain = 0
KCL1 180710Z 17011KT 27/15 A2998 RMK A01 T02700153  RH  049%=      5-min Rain = 0
KCL1 180711Z 16010KT 27/15 A2998 RMK A01 T02700153  RH  049%=      5-min Rain = 0
KCL1 180712Z 17012KT 27/15 A2998 RMK A01 T02690153  RH  049%=      5-min Rain = 0
KCL1 180713Z 18007KT 27/15 A2998 RMK A01 T02690153  RH  049%=      5-min Rain = 0
KCL1 180714Z 18008KT 27/15 A2998 RMK A01 T02690153  RH  049%=      5-min Rain = 0
KCL1 180715Z 17011KT 27/15 A2997 RMK A01 T02680153  RH  049%=      5-min Rain = 0
KCL1 180716Z 17011KT 27/15 A2998 RMK A01 T02680153  RH  049%=      5-min Rain = 0
KCL1 180717Z 18014KT 27/15 A2997 RMK A01 T02670153  RH  049%=      5-min Rain = 0
KCL1 180718Z 17014KT 27/15 A2997 RMK A01 T02680153  RH  049%=      5-min Rain = 0
KCL1 180719Z 18012KT 27/15 A2997 RMK A01 T02680152  RH  049%=      5-min Rain = 0
KCL1 180720Z 17010KT 27/15 A2997 RMK A01 T02680153  RH  049%=      5-min Rain = 0
KCL1 180721Z 18009KT 27/15 A2997 RMK A01 T02680153  RH  049%=      5-min Rain = 0
KCL1 180722Z 18012KT 27/15 A2997 RMK A01 T02680153  RH  049%=      5-min Rain = 0
KCL1 180723Z 17010KT 27/15 A2997 RMK A01 T02680153  RH  049%=      5-min Rain = 0
KCL1 180724Z 18008KT 27/15 A2997 RMK A01 T02670153  RH  049%=      5-min Rain = 0
KCL1 180725Z 17012KT 27/15 A2997 RMK A01 T02670153  RH  050%=      5-min Rain = 0
KCL1 180726Z 18010KT 27/15 A2997 RMK A01 T02670153  RH  050%=      5-min Rain = 0
KCL1 180727Z 17013KT 27/15 A2997 RMK A01 T02670153  RH  050%=      5-min Rain = 0
KCL1 180728Z 17013KT 27/15 A2997 RMK A01 T02670153  RH  050%=      5-min Rain = 0
KCL1 180729Z 17015KT 27/15 A2997 RMK A01 T02670153  RH  050%=      5-min Rain = 0
KCL1 180730Z 18015KT 27/15 A2997 RMK A01 T02670153  RH  050%=      5-min Rain = 0
KCL1 180731Z 17012KT 27/15 A2997 RMK A01 T02670153  RH  049%=      5-min Rain = 0
KCL1 180732Z 18011KT 27/15 A2997 RMK A01 T02670153  RH  050%=      5-min Rain = 0
KCL1 180733Z 18011KT 27/15 A2997 RMK A01 T02670153  RH  050%=      5-min Rain = 0
KCL1 180734Z 18012G17KT 27/15 A2997 RMK A01 T02670153  RH  050%=      5-min Rain = 0
KCL1 180735Z 17013G18KT 27/15 A2997 RMK A01 T02660153  RH  050%=      5-min Rain = 0
KCL1 180736Z 18014KT 27/15 A2997 RMK A01 T02660153  RH  050%=      5-min Rain = 0
KCL1 180737Z 18013KT 27/15 A2997 RMK A01 T02660153  RH  050%=      5-min Rain = 0
KCL1 180738Z 18012KT 27/15 A2997 RMK A01 T02660153  RH  050%=      5-min Rain = 0
KCL1 180739Z 19014KT 27/15 A2997 RMK A01 T02660153  RH  050%=      5-min Rain = 0
KCL1 180740Z 17011KT 27/15 A2997 RMK A01 T02660153  RH  050%=      5-min Rain = 0
KCL1 180741Z 17012KT 27/15 A2997 RMK A01 T02660153  RH  050%=      5-min Rain = 0
KCL1 180742Z 18015KT 27/15 A2997 RMK A01 T02660153  RH  050%=      5-min Rain = 0
KCL1 180743Z 17014KT 27/15 A2997 RMK A01 T02660153  RH  050%=      5-min Rain = 0
KCL1 180744Z 17013KT 27/15 A2997 RMK A01 T02660153  RH  050%=      5-min Rain = 0
KCL1 180745Z 17011KT 27/15 A2997 RMK A01 T02660154  RH  050%=      5-min Rain = 0
KCL1 180746Z 17013KT 27/15 A2997 RMK A01 T02650153  RH  050%=      5-min Rain = 0
KCL1 180747Z 17012KT 26/15 A2997 RMK A01 T02640153  RH  050%=      5-min Rain = 0
KCL1 180748Z 17015G21KT 26/15 A2997 RMK A01 T02640153  RH  050%=      5-min Rain = 0
KCL1 180749Z 17015G20KT 27/15 A2997 RMK A01 T02650153  RH  050%=      5-min Rain = 0
KCL1 180750Z 17012KT 27/15 A2997 RMK A01 T02660154  RH  050%=      5-min Rain = 0
KCL1 180751Z 17016KT 27/15 A2997 RMK A01 T02660154  RH  050%=      5-min Rain = 0
KCL1 180752Z 17014KT 27/15 A2997 RMK A01 T02650154  RH  050%=      5-min Rain = 0
KCL1 180753Z 17016KT 27/15 A2997 RMK A01 T02650154  RH  050%=      5-min Rain = 0
KCL1 180754Z 17013KT 27/15 A2997 RMK A01 T02650154  RH  050%=      5-min Rain = 0
KCL1 180755Z 16013KT 27/15 A2997 RMK A01 T02650153  RH  050%=      5-min Rain = 0
KCL1 180756Z 17012G18KT 26/15 A2997 RMK A01 T02640154  RH  050%=      5-min Rain = 0
KCL1 180757Z 18014G20KT 26/15 A2997 RMK A01 T02640154  RH  051%=      5-min Rain = 0
KCL1 180758Z 17012KT 26/15 A2997 RMK A01 T02640154  RH  051%=      5-min Rain = 0
KCL1 180759Z 18013KT 26/15 A2997 RMK A01 T02640154  RH  051%=      5-min Rain = 0
KCL1 180800Z 17010KT 26/15 A2997 RMK A01 T02640154  RH  051%=      5-min Rain = 0
KCL1 180801Z 18010KT 26/15 A2997 RMK A01 T02630154  RH  051%=      5-min Rain = 0
KCL1 180802Z 18011KT 26/15 A2997 RMK A01 T02620154  RH  051%=      5-min Rain = 0
KCL1 180803Z 17011KT 26/15 A2997 RMK A01 T02620153  RH  051%=      5-min Rain = 0
KCL1 180804Z 17010KT 26/15 A2997 RMK A01 T02620153  RH  051%=      5-min Rain = 0
KCL1 180805Z 17009KT 26/15 A2997 RMK A01 T02620154  RH  051%=      5-min Rain = 0
KCL1 180806Z 19010KT 26/15 A2997 RMK A01 T02610153  RH  051%=      5-min Rain = 0
KCL1 180807Z 18011KT 26/15 A2997 RMK A01 T02610153  RH  051%=      5-min Rain = 0
KCL1 180808Z 18010KT 26/15 A2997 RMK A01 T02610153  RH  051%=      5-min Rain = 0
KCL1 180809Z 17009KT 26/15 A2997 RMK A01 T02610153  RH  051%=      5-min Rain = 0
KCL1 180810Z 18013KT 26/15 A2997 RMK A01 T02610153  RH  051%=      5-min Rain = 0
KCL1 180811Z 19012KT 26/15 A2997 RMK A01 T02620153  RH  051%=      5-min Rain = 0
KCL1 180812Z 19010KT 26/15 A2998 RMK A01 T02620153  RH  051%=      5-min Rain = 0
KCL1 180813Z 20008KT 26/15 A2998 RMK A01 T02620153  RH  051%=      5-min Rain = 0
KCL1 180814Z 19011KT 26/15 A2998 RMK A01 T02630153  RH  051%=      5-min Rain = 0
KCL1 180815Z 18010KT 26/15 A2998 RMK A01 T02630153  RH  051%=      5-min Rain = 0
KCL1 180816Z 19010KT 26/15 A2998 RMK A01 T02620154  RH  051%=      5-min Rain = 0
KCL1 180817Z 19010KT 26/15 A2998 RMK A01 T02620153  RH  051%=      5-min Rain = 0
KCL1 180818Z 18011KT 26/15 A2998 RMK A01 T02620153  RH  051%=      5-min Rain = 0
KCL1 180819Z 19009KT 26/15 A2998 RMK A01 T02620154  RH  051%=      5-min Rain = 0
KCL1 180820Z 18011KT 26/15 A2998 RMK A01 T02610153  RH  051%=      5-min Rain = 0
KCL1 180821Z 20008KT 26/15 A2998 RMK A01 T02610153  RH  051%=      5-min Rain = 0
KCL1 180822Z 20009G15KT 26/15 A2998 RMK A01 T02610153  RH  052%=      5-min Rain = 0
KCL1 180823Z 20013KT 26/15 A2997 RMK A01 T02600153  RH  051%=      5-min Rain = 0
KCL1 180824Z 18013G18KT 26/15 A2997 RMK A01 T02620153  RH  051%=      5-min Rain = 0
KCL1 180825Z 19010KT 26/15 A2997 RMK A01 T02620153  RH  051%=      5-min Rain = 0
KCL1 180826Z 20007KT 26/15 A2997 RMK A01 T02630153  RH  051%=      5-min Rain = 0
KCL1 180827Z 20009KT 26/15 A2997 RMK A01 T02620153  RH  051%=      5-min Rain = 0
KCL1 180828Z 20008KT 26/15 A2997 RMK A01 T02620153  RH  051%=      5-min Rain = 0
KCL1 180829Z 21011KT 26/15 A2998 RMK A01 T02620153  RH  051%=      5-min Rain = 0
KCL1 180830Z 20009KT 26/15 A2998 RMK A01 T02620153  RH  051%=      5-min Rain = 0
KCL1 180831Z 19010KT 26/15 A2998 RMK A01 T02630154  RH  051%=      5-min Rain = 0
KCL1 180832Z 20012KT 26/15 A2998 RMK A01 T02620154  RH  051%=      5-min Rain = 0
KCL1 180833Z 19013KT 26/15 A2997 RMK A01 T02620154  RH  051%=      5-min Rain = 0
KCL1 180834Z 19010KT 26/15 A2998 RMK A01 T02620154  RH  051%=      5-min Rain = 0
KCL1 180835Z 20011KT 26/15 A2998 RMK A01 T02620154  RH  051%=      5-min Rain = 0
KCL1 180836Z 20009KT 26/15 A2998 RMK A01 T02620154  RH  051%=      5-min Rain = 0
KCL1 180837Z 20010G17KT 26/15 A2998 RMK A01 T02620154  RH  051%=      5-min Rain = 0
KCL1 180838Z 21010KT 26/15 A2998 RMK A01 T02620154  RH  051%=      5-min Rain = 0
KCL1 180839Z 20012G17KT 26/15 A2998 RMK A01 T02620154  RH  051%=      5-min Rain = 0
KCL1 180840Z 19011KT 26/16 A2997 RMK A01 T02630155  RH  051%=      5-min Rain = 0
KCL1 180841Z 20009G14KT 26/16 A2998 RMK A01 T02630155  RH  051%=      5-min Rain = 0
KCL1 180842Z 19009KT 26/16 A2998 RMK A01 T02630155  RH  051%=      5-min Rain = 0
KCL1 180843Z 19010KT 26/16 A2998 RMK A01 T02630156  RH  052%=      5-min Rain = 0
KCL1 180844Z 19011G16KT 26/16 A2998 RMK A01 T02630156  RH  052%=      5-min Rain = 0
KCL1 180845Z 18017KT 26/16 A2997 RMK A01 T02630156  RH  052%=      5-min Rain = 0
KCL1 180846Z 19016KT 26/16 A2997 RMK A01 T02620156  RH  052%=      5-min Rain = 0
KCL1 180847Z 20013KT 26/16 A2997 RMK A01 T02630156  RH  052%=      5-min Rain = 0
KCL1 180848Z 20016G23KT 26/16 A2997 RMK A01 T02630156  RH  052%=      5-min Rain = 0
KCL1 180849Z 19015KT 26/16 A2997 RMK A01 T02620156  RH  052%=      5-min Rain = 0
KCL1 180850Z 19013G19KT 26/16 A2997 RMK A01 T02630156  RH  052%=      5-min Rain = 0
KCL1 180851Z 19013G18KT 26/16 A2997 RMK A01 T02630157  RH  052%=      5-min Rain = 0
KCL1 180852Z 18014KT 26/16 A2997 RMK A01 T02620157  RH  052%=      5-min Rain = 0
KCL1 180853Z 19011KT 26/16 A2997 RMK A01 T02620157  RH  052%=      5-min Rain = 0
KCL1 180854Z 19009KT 26/16 A2997 RMK A01 T02620157  RH  052%=      5-min Rain = 0
KCL1 180855Z 19010KT 26/16 A2997 RMK A01 T02620157  RH  052%=      5-min Rain = 0
KCL1 180856Z 19009G14KT 26/16 A2997 RMK A01 T02610157  RH  053%=      5-min Rain = 0
KCL1 180857Z 20012KT 26/16 A2997 RMK A01 T02610157  RH  053%=      5-min Rain = 0
KCL1 180858Z 19015KT 26/16 A2997 RMK A01 T02610157  RH  053%=      5-min Rain = 0
KCL1 180859Z 18011KT 26/16 A2997 RMK A01 T02610158  RH  053%=      5-min Rain = 0
KCL1 180900Z 20012KT 26/16 A2997 RMK A01 T02610157  RH  053%=      5-min Rain = 0
KCL1 180901Z 19008KT 26/16 A2997 RMK A01 T02610157  RH  053%=      5-min Rain = 0
KCL1 180902Z 20007KT 26/16 A2997 RMK A01 T02610158  RH  053%=      5-min Rain = 0
KCL1 180903Z 19009KT 26/16 A2997 RMK A01 T02600157  RH  053%=      5-min Rain = 0
KCL1 180904Z 19010KT 26/16 A2997 RMK A01 T02600158  RH  053%=      5-min Rain = 0
KCL1 180905Z 19008G13KT 26/16 A2997 RMK A01 T02600158  RH  053%=      5-min Rain = 0
KCL1 180906Z 19010G15KT 26/16 A2997 RMK A01 T02590158  RH  054%=      5-min Rain = 0
KCL1 180907Z 18009KT 26/16 A2997 RMK A01 T02590158  RH  054%=      5-min Rain = 0
KCL1 180908Z 19012KT 26/16 A2997 RMK A01 T02590159  RH  054%=      5-min Rain = 0
KCL1 180909Z 19007G12KT 26/16 A2997 RMK A01 T02590158  RH  054%=      5-min Rain = 0
KCL1 180910Z 18013KT 26/16 A2997 RMK A01 T02590159  RH  054%=      5-min Rain = 0
KCL1 180911Z 18010KT 26/16 A2997 RMK A01 T02590159  RH  054%=      5-min Rain = 0
KCL1 180912Z 19009KT 26/16 A2997 RMK A01 T02590159  RH  054%=      5-min Rain = 0
KCL1 180913Z 18012KT 26/16 A2997 RMK A01 T02590159  RH  054%=      5-min Rain = 0
KCL1 180914Z 19014KT 26/16 A2997 RMK A01 T02590159  RH  054%=      5-min Rain = 0
KCL1 180915Z 18011KT 26/16 A2997 RMK A01 T02590159  RH  054%=      5-min Rain = 0
KCL1 180916Z 18011KT 26/16 A2997 RMK A01 T02600159  RH  054%=      5-min Rain = 0
KCL1 180917Z 19013KT 26/16 A2997 RMK A01 T02600159  RH  054%=      5-min Rain = 0
KCL1 180918Z 19013KT 26/16 A2997 RMK A01 T02590159  RH  054%=      5-min Rain = 0
KCL1 180919Z 19010KT 26/16 A2998 RMK A01 T02590159  RH  054%=      5-min Rain = 0
KCL1 180920Z 18010KT 26/16 A2998 RMK A01 T02590159  RH  054%=      5-min Rain = 0
KCL1 180921Z 18010KT 26/16 A2998 RMK A01 T02590159  RH  054%=      5-min Rain = 0
KCL1 180922Z 18008G13KT 26/16 A2998 RMK A01 T02590159  RH  054%=      5-min Rain = 0
KCL1 180923Z 18006KT 26/16 A2998 RMK A01 T02580159  RH  054%=      5-min Rain = 0
KCL1 180924Z 18009KT 26/16 A2998 RMK A01 T02570159  RH  055%=      5-min Rain = 0
KCL1 180925Z 18008KT 26/16 A2998 RMK A01 T02560159  RH  055%=      5-min Rain = 0
KCL1 180926Z 19007KT 26/16 A2998 RMK A01 T02560159  RH  055%=      5-min Rain = 0
KCL1 180927Z 18011KT 26/16 A2998 RMK A01 T02550159  RH  055%=      5-min Rain = 0
KCL1 180928Z 17010KT 26/16 A2998 RMK A01 T02550159  RH  055%=      5-min Rain = 0
KCL1 180929Z 18012KT 26/16 A2998 RMK A01 T02560160  RH  055%=      5-min Rain = 0
KCL1 180930Z 18010KT 26/16 A2998 RMK A01 T02560159  RH  055%=      5-min Rain = 0
KCL1 180931Z 18010KT 26/16 A2998 RMK A01 T02560159  RH  055%=      5-min Rain = 0
KCL1 180932Z 17008KT 26/16 A2998 RMK A01 T02560160  RH  055%=      5-min Rain = 0
KCL1 180933Z 17010KT 26/16 A2998 RMK A01 T02560160  RH  055%=      5-min Rain = 0
KCL1 180934Z 18012KT 26/16 A2998 RMK A01 T02560160  RH  055%=      5-min Rain = 0
KCL1 180935Z 18009KT 26/16 A2998 RMK A01 T02560160  RH  055%=      5-min Rain = 0
KCL1 180936Z 18008KT 26/16 A2998 RMK A01 T02550160  RH  056%=      5-min Rain = 0
KCL1 180937Z 18009KT 26/16 A2998 RMK A01 T02550160  RH  056%=      5-min Rain = 0
KCL1 180938Z 19013KT 25/16 A2998 RMK A01 T02540160  RH  056%=      5-min Rain = 0
KCL1 180939Z 19012KT 26/16 A2998 RMK A01 T02550160  RH  056%=      5-min Rain = 0
KCL1 180940Z 18010KT 26/16 A2998 RMK A01 T02560160  RH  056%=      5-min Rain = 0
KCL1 180941Z 19010KT 26/16 A2998 RMK A01 T02560160  RH  055%=      5-min Rain = 0
KCL1 180942Z 19010KT 26/16 A2998 RMK A01 T02560160  RH  055%=      5-min Rain = 0
KCL1 180943Z 18009KT 26/16 A2998 RMK A01 T02560160  RH  056%=      5-min Rain = 0
KCL1 180944Z 18010KT 26/16 A2998 RMK A01 T02550160  RH  056%=      5-min Rain = 0
KCL1 180945Z 18007KT 26/16 A2998 RMK A01 T02550160  RH  056%=      5-min Rain = 0
KCL1 180946Z 19010KT 26/16 A2998 RMK A01 T02550161  RH  056%=      5-min Rain = 0
KCL1 180947Z 18011KT 26/16 A2998 RMK A01 T02550161  RH  056%=      5-min Rain = 0
KCL1 180948Z 19013KT 26/16 A2998 RMK A01 T02560161  RH  056%=      5-min Rain = 0
KCL1 180949Z 19009KT 26/16 A2998 RMK A01 T02570161  RH  055%=      5-min Rain = 0
KCL1 180950Z 19008KT 26/16 A2998 RMK A01 T02570161  RH  055%=      5-min Rain = 0
KCL1 180951Z 20010KT 26/16 A2998 RMK A01 T02570161  RH  055%=      5-min Rain = 0
KCL1 180952Z 20009KT 26/16 A2998 RMK A01 T02560161  RH  055%=      5-min Rain = 0
KCL1 180953Z 21010KT 26/16 A2998 RMK A01 T02560161  RH  055%=      5-min Rain = 0
KCL1 180954Z 20008KT 26/16 A2998 RMK A01 T02570161  RH  055%=      5-min Rain = 0
KCL1 180955Z 19010KT 26/16 A2998 RMK A01 T02570161  RH  055%=      5-min Rain = 0
KCL1 180956Z 21011G16KT 26/16 A2998 RMK A01 T02570161  RH  055%=      5-min Rain = 0
KCL1 180957Z 19012G20KT 26/16 A2998 RMK A01 T02570161  RH  055%=      5-min Rain = 0
KCL1 180958Z 20013KT 26/16 A2998 RMK A01 T02580161  RH  055%=      5-min Rain = 0
KCL1 180959Z 20006KT 26/16 A2998 RMK A01 T02590162  RH  055%=      5-min Rain = 0
KCL1 181000Z 21009KT 26/16 A2998 RMK A01 T02580162  RH  055%=      5-min Rain = 0
KCL1 181001Z 19012KT 26/16 A2998 RMK A01 T02570161  RH  055%=      5-min Rain = 0
KCL1 181002Z 19009KT 26/16 A2998 RMK A01 T02570161  RH  055%=      5-min Rain = 0
KCL1 181003Z 18009KT 26/16 A2998 RMK A01 T02580161  RH  055%=      5-min Rain = 0
KCL1 181004Z 19010G15KT 26/16 A2998 RMK A01 T02570162  RH  055%=      5-min Rain = 0
KCL1 181005Z 20009KT 26/16 A2998 RMK A01 T02580162  RH  055%=      5-min Rain = 0
KCL1 181006Z 20012KT 26/16 A2998 RMK A01 T02580162  RH  055%=      5-min Rain = 0
KCL1 181007Z 20014KT 26/16 A2998 RMK A01 T02580162  RH  055%=      5-min Rain = 0
KCL1 181008Z 19009KT 26/16 A2998 RMK A01 T02580162  RH  055%=      5-min Rain = 0
KCL1 181009Z 19009G14KT 26/16 A2998 RMK A01 T02580162  RH  055%=      5-min Rain = 0
KCL1 181010Z 20016G21KT 26/16 A2998 RMK A01 T02580162  RH  055%=      5-min Rain = 0
KCL1 181011Z 20011G16KT 26/16 A2998 RMK A01 T02580162  RH  055%=      5-min Rain = 0
KCL1 181012Z 19009KT 26/16 A2998 RMK A01 T02590162  RH  055%=      5-min Rain = 0
KCL1 181013Z 18012KT 26/16 A2998 RMK A01 T02580162  RH  055%=      5-min Rain = 0
KCL1 181014Z 20014KT 26/16 A2998 RMK A01 T02580162  RH  056%=      5-min Rain = 0
KCL1 181015Z 19010G15KT 26/16 A2998 RMK A01 T02580162  RH  056%=      5-min Rain = 0
KCL1 181016Z 18010G16KT 26/16 A2998 RMK A01 T02570162  RH  056%=      5-min Rain = 0
KCL1 181017Z 18010KT 26/16 A2998 RMK A01 T02580163  RH  056%=      5-min Rain = 0
KCL1 181018Z 19010KT 26/16 A2998 RMK A01 T02570162  RH  056%=      5-min Rain = 0
KCL1 181019Z 18013KT 26/16 A2998 RMK A01 T02560162  RH  056%=      5-min Rain = 0
KCL1 181020Z 19010KT 26/16 A2998 RMK A01 T02560162  RH  056%=      5-min Rain = 0
KCL1 181021Z 20010KT 26/16 A2998 RMK A01 T02560162  RH  056%=      5-min Rain = 0
KCL1 181022Z 20016G23KT 26/16 A2998 RMK A01 T02560162  RH  056%=      5-min Rain = 0
KCL1 181023Z 18011G16KT 26/16 A2998 RMK A01 T02570162  RH  056%=      5-min Rain = 0
KCL1 181024Z 18014KT 26/16 A2998 RMK A01 T02580163  RH  056%=      5-min Rain = 0
KCL1 181025Z 19008G14KT 26/16 A2998 RMK A01 T02570162  RH  056%=      5-min Rain = 0
KCL1 181026Z 20007KT 26/16 A2998 RMK A01 T02570163  RH  056%=      5-min Rain = 0
KCL1 181027Z 20013KT 26/16 A2998 RMK A01 T02570162  RH  056%=      5-min Rain = 0
KCL1 181028Z 21009KT 26/16 A2998 RMK A01 T02570162  RH  056%=      5-min Rain = 0
KCL1 181029Z 18011G16KT 26/16 A2998 RMK A01 T02570162  RH  056%=      5-min Rain = 0
KCL1 181030Z 20014G19KT 26/16 A2998 RMK A01 T02570162  RH  056%=      5-min Rain = 0
KCL1 181031Z 20013KT 26/16 A2998 RMK A01 T02570162  RH  056%=      5-min Rain = 0
KCL1 181032Z 20010KT 26/16 A2998 RMK A01 T02570162  RH  056%=      5-min Rain = 0
KCL1 181033Z 20009KT 26/16 A2999 RMK A01 T02570163  RH  056%=      5-min Rain = 0
KCL1 181034Z 20010KT 26/16 A2999 RMK A01 T02570163  RH  056%=      5-min Rain = 0
KCL1 181035Z 20010KT 26/16 A2999 RMK A01 T02570162  RH  056%=      5-min Rain = 0
KCL1 181036Z 20008KT 26/16 A2999 RMK A01 T02570162  RH  056%=      5-min Rain = 0
KCL1 181037Z 20012KT 26/16 A2999 RMK A01 T02570162  RH  056%=      5-min Rain = 0
KCL1 181038Z 20013KT 26/16 A2999 RMK A01 T02570162  RH  056%=      5-min Rain = 0
KCL1 181039Z 18011KT 26/16 A2999 RMK A01 T02570162  RH  056%=      5-min Rain = 0
KCL1 181040Z 20011KT 26/16 A2999 RMK A01 T02570162  RH  056%=      5-min Rain = 0
KCL1 181041Z 19010KT 26/16 A2999 RMK A01 T02570162  RH  056%=      5-min Rain = 0
KCL1 181042Z 19009KT 26/16 A2999 RMK A01 T02570162  RH  056%=      5-min Rain = 0
KCL1 181043Z 20012KT 26/16 A2999 RMK A01 T02560162  RH  056%=      5-min Rain = 0
KCL1 181044Z 19009KT 26/16 A2999 RMK A01 T02560162  RH  056%=      5-min Rain = 0
KCL1 181045Z 20008G13KT 26/16 A2999 RMK A01 T02560162  RH  056%=      5-min Rain = 0
KCL1 181046Z 19017G22KT 26/16 A2999 RMK A01 T02560162  RH  056%=      5-min Rain = 0
KCL1 181047Z 20016KT 26/16 A2999 RMK A01 T02560162  RH  056%=      5-min Rain = 0
KCL1 181048Z 19014KT 26/16 A2998 RMK A01 T02570162  RH  056%=      5-min Rain = 0
KCL1 181049Z 20010KT 26/16 A2999 RMK A01 T02570162  RH  056%=      5-min Rain = 0
KCL1 181050Z 19009KT 26/16 A2999 RMK A01 T02570162  RH  056%=      5-min Rain = 0
KCL1 181051Z 19009KT 26/16 A2999 RMK A01 T02560163  RH  056%=      5-min Rain = 0
KCL1 181052Z 19007KT 26/16 A2999 RMK A01 T02550162  RH  057%=      5-min Rain = 0
KCL1 181053Z 21007KT 25/16 A2999 RMK A01 T02540162  RH  057%=      5-min Rain = 0
KCL1 181054Z 20008KT 25/16 A2999 RMK A01 T02540162  RH  057%=      5-min Rain = 0
KCL1 181055Z 18013G21KT 25/16 A2998 RMK A01 T02540162  RH  057%=      5-min Rain = 0
KCL1 181056Z 19009KT 25/16 A2998 RMK A01 T02540162  RH  057%=      5-min Rain = 0
KCL1 181057Z 20015G20KT 25/16 A2998 RMK A01 T02540162  RH  057%=      5-min Rain = 0
KCL1 181058Z 19011KT 26/16 A2998 RMK A01 T02550162  RH  056%=      5-min Rain = 0
KCL1 181059Z 20012KT 26/16 A2998 RMK A01 T02550162  RH  056%=      5-min Rain = 0
KCL1 181100Z 19011KT 26/16 A2998 RMK A01 T02550162  RH  056%=      5-min Rain = 0
KCL1 181101Z 20011KT 26/16 A2998 RMK A01 T02550162  RH  056%=      5-min Rain = 0
KCL1 181102Z 20013KT 26/16 A2998 RMK A01 T02560162  RH  056%=      5-min Rain = 0
KCL1 181103Z 20019G26KT 26/16 A2998 RMK A01 T02560162  RH  056%=      5-min Rain = 0
KCL1 181104Z 19016KT 26/16 A2998 RMK A01 T02570162  RH  056%=      5-min Rain = 0
KCL1 181105Z 19012G17KT 26/16 A2998 RMK A01 T02570162  RH  056%=      5-min Rain = 0
KCL1 181106Z 19009KT 26/16 A2998 RMK A01 T02570162  RH  056%=      5-min Rain = 0
KCL1 181107Z 19012G19KT 26/16 A2998 RMK A01 T02570162  RH  056%=      5-min Rain = 0
KCL1 181108Z 18015KT 26/16 A2998 RMK A01 T02560162  RH  056%=      5-min Rain = 0
KCL1 181109Z 18015KT 26/16 A2998 RMK A01 T02560162  RH  056%=      5-min Rain = 0
KCL1 181110Z 19011KT 26/16 A2998 RMK A01 T02560162  RH  056%=      5-min Rain = 0
KCL1 181111Z 19010G15KT 26/16 A2998 RMK A01 T02560162  RH  056%=      5-min Rain = 0
KCL1 181112Z 19014G19KT 26/16 A2998 RMK A01 T02560162  RH  056%=      5-min Rain = 0
KCL1 181113Z 18011KT 26/16 A2998 RMK A01 T02560162  RH  056%=      5-min Rain = 0
KCL1 181114Z 19010KT 26/16 A2998 RMK A01 T02560162  RH  056%=      5-min Rain = 0
KCL1 181115Z 19013KT 26/16 A2998 RMK A01 T02560162  RH  056%=      5-min Rain = 0
KCL1 181116Z 18011KT 26/16 A2998 RMK A01 T02550162  RH  056%=      5-min Rain = 0
KCL1 181117Z 18011KT 26/16 A2999 RMK A01 T02550162  RH  056%=      5-min Rain = 0
KCL1 181118Z 19008KT 26/16 A2999 RMK A01 T02550162  RH  057%=      5-min Rain = 0
KCL1 181119Z 19010KT 25/16 A2999 RMK A01 T02540162  RH  057%=      5-min Rain = 0
KCL1 181120Z 19011G17KT 25/16 A2999 RMK A01 T02540162  RH  057%=      5-min Rain = 0
KCL1 181121Z 19013KT 25/16 A2999 RMK A01 T02530162  RH  057%=      5-min Rain = 0
KCL1 181122Z 19011KT 25/16 A2999 RMK A01 T02530162  RH  057%=      5-min Rain = 0
KCL1 181123Z 19011KT 25/16 A2999 RMK A01 T02530162  RH  057%=      5-min Rain = 0
KCL1 181124Z 18014G19KT 25/16 A2999 RMK A01 T02530162  RH  057%=      5-min Rain = 0
KCL1 181125Z 19012KT 25/16 A2999 RMK A01 T02530162  RH  057%=      5-min Rain = 0
KCL1 181126Z 19013KT 25/16 A2998 RMK A01 T02540162  RH  057%=      5-min Rain = 0
KCL1 181127Z 17015G23KT 25/16 A2998 RMK A01 T02530162  RH  057%=      5-min Rain = 0
KCL1 181128Z 18011KT 25/16 A2998 RMK A01 T02530162  RH  057%=      5-min Rain = 0
KCL1 181129Z 19013KT 25/16 A2998 RMK A01 T02530162  RH  057%=      5-min Rain = 0
KCL1 181130Z 19015G22KT 25/16 A2999 RMK A01 T02530162  RH  057%=      5-min Rain = 0
KCL1 181131Z 17011KT 25/16 A2998 RMK A01 T02530162  RH  057%=      5-min Rain = 0
KCL1 181132Z 16010KT 25/16 A2998 RMK A01 T02520162  RH  057%=      5-min Rain = 0
KCL1 181133Z 18011KT 25/16 A2999 RMK A01 T02510162  RH  058%=      5-min Rain = 0
KCL1 181134Z 18010KT 25/16 A2998 RMK A01 T02490162  RH  058%=      5-min Rain = 0
KCL1 181135Z 17009KT 25/16 A2999 RMK A01 T02490162  RH  058%=      5-min Rain = 0
KCL1 181136Z 19009KT 25/16 A2999 RMK A01 T02480162  RH  059%=      5-min Rain = 0
KCL1 181137Z 18010KT 25/16 A2999 RMK A01 T02480162  RH  059%=      5-min Rain = 0
KCL1 181138Z 18012KT 25/16 A2998 RMK A01 T02480162  RH  059%=      5-min Rain = 0
KCL1 181139Z 19014KT 25/16 A2998 RMK A01 T02480161  RH  058%=      5-min Rain = 0
KCL1 181140Z 18011G19KT 25/16 A2999 RMK A01 T02490161  RH  058%=      5-min Rain = 0
KCL1 181141Z 17011KT 25/16 A2999 RMK A01 T02490161  RH  058%=      5-min Rain = 0
KCL1 181142Z 17010G17KT 25/16 A2998 RMK A01 T02490162  RH  058%=      5-min Rain = 0
KCL1 181143Z 17014G19KT 25/16 A2998 RMK A01 T02490161  RH  058%=      5-min Rain = 0
KCL1 181144Z 17014KT 25/16 A2998 RMK A01 T02480161  RH  058%=      5-min Rain = 0
KCL1 181145Z 19011KT 25/16 A2999 RMK A01 T02480161  RH  058%=      5-min Rain = 0
KCL1 181146Z 17010KT 25/16 A2998 RMK A01 T02490161  RH  058%=      5-min Rain = 0
KCL1 181147Z 17014G19KT 25/16 A2998 RMK A01 T02480161  RH  058%=      5-min Rain = 0
KCL1 181148Z 16014G21KT 25/16 A2998 RMK A01 T02480161  RH  058%=      5-min Rain = 0
KCL1 181149Z 17013G20KT 25/16 A2998 RMK A01 T02480161  RH  058%=      5-min Rain = 0
KCL1 181150Z 18012KT 25/16 A2998 RMK A01 T02480161  RH  059%=      5-min Rain = 0
KCL1 181151Z 18012KT 25/16 A2999 RMK A01 T02470161  RH  059%=      5-min Rain = 0
KCL1 181152Z 18011G16KT 25/16 A2998 RMK A01 T02470161  RH  059%=      5-min Rain = 0
KCL1 181153Z 17012KT 25/16 A2998 RMK A01 T02470161  RH  059%=      5-min Rain = 0
KCL1 181154Z 18013KT 25/16 A2998 RMK A01 T02460161  RH  059%=      5-min Rain = 0
KCL1 181155Z 18011KT 25/16 A2998 RMK A01 T02470161  RH  059%=      5-min Rain = 0
KCL1 181156Z 18012KT 25/16 A2999 RMK A01 T02470161  RH  059%=      5-min Rain = 0
KCL1 181157Z 18015KT 25/16 A2998 RMK A01 T02460161  RH  059%=      5-min Rain = 0
KCL1 181158Z 17010G17KT 25/16 A2999 RMK A01 T02460161  RH  059%=      5-min Rain = 0
KCL1 181159Z 17012KT 25/16 A2998 RMK A01 T02470162  RH  059%=      5-min Rain = 0
KCL1 181200Z 18012KT 25/16 A2999 RMK A01 T02460161  RH  059%=      5-min Rain = 0
KCL1 181201Z 18012KT 25/16 A2998 RMK A01 T02460161  RH  059%=      5-min Rain = 0
KCL1 181202Z 17009G14KT 25/16 A2998 RMK A01 T02460162  RH  059%=      5-min Rain = 0
KCL1 181203Z 17013KT 25/16 A2998 RMK A01 T02460162  RH  059%=      5-min Rain = 0
KCL1 181204Z 17011KT 25/16 A2998 RMK A01 T02450162  RH  059%=      5-min Rain = 0
KCL1 181205Z 17013KT 25/16 A2998 RMK A01 T02450161  RH  060%=      5-min Rain = 0
KCL1 181206Z 18014KT 25/16 A2998 RMK A01 T02450162  RH  060%=      5-min Rain = 0
KCL1 181207Z 18013KT 25/16 A2998 RMK A01 T02450161  RH  059%=      5-min Rain = 0
KCL1 181208Z 17012KT 25/16 A2998 RMK A01 T02460161  RH  059%=      5-min Rain = 0
KCL1 181209Z 18011KT 25/16 A2998 RMK A01 T02460161  RH  059%=      5-min Rain = 0
KCL1 181210Z 18010KT 25/16 A2998 RMK A01 T02460162  RH  059%=      5-min Rain = 0
KCL1 181211Z 18012KT 25/16 A2998 RMK A01 T02460162  RH  059%=      5-min Rain = 0
KCL1 181212Z 18013KT 25/16 A2998 RMK A01 T02460161  RH  059%=      5-min Rain = 0
KCL1 181213Z 18012KT 25/16 A2998 RMK A01 T02460161  RH  059%=      5-min Rain = 0
KCL1 181214Z 17013KT 25/16 A2998 RMK A01 T02460161  RH  059%=      5-min Rain = 0
KCL1 181215Z 18012KT 25/16 A2998 RMK A01 T02470162  RH  059%=      5-min Rain = 0
KCL1 181216Z 18015KT 25/16 A2998 RMK A01 T02470161  RH  059%=      5-min Rain = 0
KCL1 181217Z 18015KT 25/16 A2998 RMK A01 T02470161  RH  059%=      5-min Rain = 0
KCL1 181218Z 19015KT 25/16 A2998 RMK A01 T02460161  RH  059%=      5-min Rain = 0
KCL1 181219Z 17015G20KT 25/16 A2998 RMK A01 T02470161  RH  059%=      5-min Rain = 0
KCL1 181220Z 18016KT 25/16 A2998 RMK A01 T02470161  RH  059%=      5-min Rain = 0
KCL1 181221Z 18015KT 25/16 A2998 RMK A01 T02470161  RH  058%=      5-min Rain = 0
KCL1 181222Z 18016KT 25/16 A2998 RMK A01 T02470160  RH  058%=      5-min Rain = 0
KCL1 181223Z 18017KT 25/16 A2998 RMK A01 T02480161  RH  058%=      5-min Rain = 0
KCL1 181224Z 19018KT 25/16 A2998 RMK A01 T02480161  RH  058%=      5-min Rain = 0
KCL1 181225Z 18015KT 25/16 A2998 RMK A01 T02480160  RH  058%=      5-min Rain = 0
KCL1 181226Z 18012KT 25/16 A2998 RMK A01 T02480161  RH  058%=      5-min Rain = 0
KCL1 181227Z 19015KT 25/16 A2998 RMK A01 T02480161  RH  058%=      5-min Rain = 0
KCL1 181228Z 19018KT 25/16 A2998 RMK A01 T02480160  RH  058%=      5-min Rain = 0
KCL1 181229Z 18017KT 25/16 A2998 RMK A01 T02490160  RH  058%=      5-min Rain = 0
KCL1 181230Z 19015KT 25/16 A2998 RMK A01 T02490160  RH  058%=      5-min Rain = 0
KCL1 181231Z 20018KT 25/16 A2998 RMK A01 T02500161  RH  058%=      5-min Rain = 0
KCL1 181232Z 19016G21KT 25/16 A2998 RMK A01 T02500160  RH  057%=      5-min Rain = 0
KCL1 181233Z 19016KT 25/16 A2998 RMK A01 T02500161  RH  057%=      5-min Rain = 0
KCL1 181234Z 19018G23KT 25/16 A2998 RMK A01 T02500160  RH  057%=      5-min Rain = 0
KCL1 181235Z 19017G22KT 25/16 A2998 RMK A01 T02500160  RH  057%=      5-min Rain = 0
KCL1 181236Z 19014G20KT 25/16 A2998 RMK A01 T02510161  RH  057%=      5-min Rain = 0
KCL1 181237Z 19014KT 25/16 A2998 RMK A01 T02510160  RH  057%=      5-min Rain = 0
KCL1 181238Z 19014KT 25/16 A2998 RMK A01 T02510161  RH  057%=      5-min Rain = 0
KCL1 181239Z 19015G20KT 25/16 A2998 RMK A01 T02510161  RH  057%=      5-min Rain = 0
KCL1 181240Z 19015KT 25/16 A2998 RMK A01 T02500161  RH  057%=      5-min Rain = 0
KCL1 181241Z 19016KT 25/16 A2998 RMK A01 T02510161  RH  057%=      5-min Rain = 0
KCL1 181242Z 19018KT 25/16 A2997 RMK A01 T02510161  RH  057%=      5-min Rain = 0
KCL1 181243Z 19018KT 25/16 A2997 RMK A01 T02510160  RH  057%=      5-min Rain = 0
KCL1 181244Z 19018KT 25/16 A2997 RMK A01 T02510160  RH  057%=      5-min Rain = 0
KCL1 181245Z 19015KT 25/16 A2997 RMK A01 T02510160  RH  057%=      5-min Rain = 0
KCL1 181246Z 19014G19KT 25/16 A2997 RMK A01 T02520160  RH  057%=      5-min Rain = 0
KCL1 181247Z 20016KT 25/16 A2997 RMK A01 T02520160  RH  057%=      5-min Rain = 0
KCL1 181248Z 20019KT 25/16 A2997 RMK A01 T02520160  RH  057%=      5-min Rain = 0
KCL1 181249Z 20021G27KT 25/16 A2997 RMK A01 T02520159  RH  056%=      5-min Rain = 0
KCL1 181250Z 19016KT 25/16 A2997 RMK A01 T02530160  RH  056%=      5-min Rain = 0
KCL1 181251Z 19018KT 25/16 A2997 RMK A01 T02530160  RH  056%=      5-min Rain = 0
KCL1 181252Z 20020G27KT 25/16 A2997 RMK A01 T02530160  RH  056%=      5-min Rain = 0
KCL1 181253Z 20015KT 25/16 A2997 RMK A01 T02530160  RH  056%=      5-min Rain = 0
KCL1 181254Z 19017G22KT 25/16 A2997 RMK A01 T02530160  RH  056%=      5-min Rain = 0
KCL1 181255Z 19015G20KT 25/16 A2997 RMK A01 T02530160  RH  056%=      5-min Rain = 0
KCL1 181256Z 19017G23KT 25/16 A2997 RMK A01 T02530159  RH  056%=      5-min Rain = 0
KCL1 181257Z 19014G21KT 25/16 A2997 RMK A01 T02530159  RH  056%=      5-min Rain = 0
KCL1 181258Z 20016G22KT 25/16 A2997 RMK A01 T02540160  RH  056%=      5-min Rain = 0
KCL1 181259Z 20014G19KT 25/16 A2997 RMK A01 T02540160  RH  056%=      5-min Rain = 0
KCL1 181300Z 20016KT 25/16 A2997 RMK A01 T02540159  RH  056%=      5-min Rain = 0
KCL1 181301Z 19018KT 25/16 A2997 RMK A01 T02540159  RH  056%=      5-min Rain = 0
KCL1 181302Z 20014G20KT 25/16 A2997 RMK A01 T02540159  RH  056%=      5-min Rain = 0
KCL1 181303Z 19015KT 26/16 A2997 RMK A01 T02550160  RH  056%=      5-min Rain = 0
KCL1 181304Z 19021G27KT 25/16 A2997 RMK A01 T02540160  RH  056%=      5-min Rain = 0
KCL1 181305Z 19018G27KT 26/16 A2997 RMK A01 T02550160  RH  056%=      5-min Rain = 0
KCL1 181306Z 20017G22KT 25/16 A2997 RMK A01 T02540160  RH  056%=      5-min Rain = 0
KCL1 181307Z 19017KT 25/16 A2997 RMK A01 T02540160  RH  056%=      5-min Rain = 0
KCL1 181308Z 20015G20KT 25/16 A2997 RMK A01 T02540160  RH  056%=      5-min Rain = 0
KCL1 181309Z 20013KT 25/16 A2997 RMK A01 T02540159  RH  056%=      5-min Rain = 0
KCL1 181310Z 19012KT 25/16 A2997 RMK A01 T02540160  RH  056%=      5-min Rain = 0
KCL1 181311Z 20019G25KT 26/16 A2997 RMK A01 T02550160  RH  056%=      5-min Rain = 0
KCL1 181312Z 20014G21KT 26/16 A2997 RMK A01 T02550159  RH  055%=      5-min Rain = 0
KCL1 181313Z 19016KT 26/16 A2997 RMK A01 T02560160  RH  055%=      5-min Rain = 0
KCL1 181314Z 20012G18KT 26/16 A2997 RMK A01 T02570160  RH  055%=      5-min Rain = 0
KCL1 181315Z 20015KT 26/16 A2997 RMK A01 T02570160  RH  055%=      5-min Rain = 0
KCL1 181316Z 20016G21KT 26/16 A2997 RMK A01 T02570159  RH  055%=      5-min Rain = 0
KCL1 181317Z 20012G17KT 26/16 A2997 RMK A01 T02570160  RH  055%=      5-min Rain = 0
KCL1 181318Z 21014KT 26/16 A2997 RMK A01 T02570160  RH  055%=      5-min Rain = 0
KCL1 181319Z 20014G20KT 26/16 A2997 RMK A01 T02570159  RH  055%=      5-min Rain = 0
KCL1 181320Z 20009KT 26/16 A2997 RMK A01 T02570160  RH  055%=      5-min Rain = 0
KCL1 181321Z 20013G19KT 26/16 A2997 RMK A01 T02580160  RH  055%=      5-min Rain = 0
KCL1 181322Z 20016G22KT 26/16 A2997 RMK A01 T02580159  RH  054%=      5-min Rain = 0
KCL1 181323Z 19015G22KT 26/16 A2997 RMK A01 T02580159  RH  054%=      5-min Rain = 0
KCL1 181324Z 20014G19KT 26/16 A2997 RMK A01 T02580159  RH  054%=      5-min Rain = 0
KCL1 181325Z 22012G19KT 26/16 A2997 RMK A01 T02580159  RH  054%=      5-min Rain = 0
KCL1 181326Z 20010G15KT 26/16 A2997 RMK A01 T02580160  RH  055%=      5-min Rain = 0
KCL1 181327Z 20015G20KT 26/16 A2997 RMK A01 T02580159  RH  054%=      5-min Rain = 0
KCL1 181328Z 20017G22KT 26/16 A2997 RMK A01 T02580159  RH  054%=      5-min Rain = 0
KCL1 181329Z 20017G29KT 26/16 A2997 RMK A01 T02580159  RH  054%=      5-min Rain = 0
KCL1 181330Z 20015G20KT 26/16 A2997 RMK A01 T02580159  RH  054%=      5-min Rain = 0
KCL1 181331Z 21014KT 26/16 A2997 RMK A01 T02580159  RH  054%=      5-min Rain = 0
KCL1 181332Z 20015G22KT 26/16 A2997 RMK A01 T02580159  RH  054%=      5-min Rain = 0
KCL1 181333Z 20017KT 26/16 A2997 RMK A01 T02590159  RH  054%=      5-min Rain = 0
KCL1 181334Z 21017G22KT 26/16 A2997 RMK A01 T02590159  RH  054%=      5-min Rain = 0
KCL1 181335Z 21012G18KT 26/16 A2997 RMK A01 T02590159  RH  054%=      5-min Rain = 0
KCL1 181336Z 20013KT 26/16 A2997 RMK A01 T02590159  RH  054%=      5-min Rain = 0
KCL1 181337Z 20018KT 26/16 A2997 RMK A01 T02590159  RH  054%=      5-min Rain = 0
KCL1 181338Z 20014G20KT 26/16 A2997 RMK A01 T02600160  RH  054%=      5-min Rain = 0
KCL1 181339Z 20014G19KT 26/16 A2997 RMK A01 T02600160  RH  054%=      5-min Rain = 0
KCL1 181340Z 19015G20KT 26/16 A2997 RMK A01 T02600159  RH  054%=      5-min Rain = 0
KCL1 181341Z 20015G21KT 26/16 A2997 RMK A01 T02600159  RH  054%=      5-min Rain = 0
KCL1 181342Z 20015G21KT 26/16 A2997 RMK A01 T02610160  RH  054%=      5-min Rain = 0
KCL1 181343Z 20013KT 26/16 A2997 RMK A01 T02610160  RH  054%=      5-min Rain = 0
KCL1 181344Z 20015G20KT 26/16 A2997 RMK A01 T02610159  RH  053%=      5-min Rain = 0
KCL1 181345Z 20011G21KT 26/16 A2997 RMK A01 T02610159  RH  053%=      5-min Rain = 0
KCL1 181346Z 20016G22KT 26/16 A2997 RMK A01 T02610160  RH  053%=      5-min Rain = 0
KCL1 181347Z 20013G19KT 26/16 A2997 RMK A01 T02620159  RH  053%=      5-min Rain = 0
KCL1 181348Z 19013G20KT 26/16 A2997 RMK A01 T02620160  RH  053%=      5-min Rain = 0
KCL1 181349Z 19018G25KT 26/16 A2997 RMK A01 T02630160  RH  053%=      5-min Rain = 0
KCL1 181350Z 19016KT 26/16 A2997 RMK A01 T02640159  RH  053%=      5-min Rain = 0
KCL1 181351Z 19016KT 26/16 A2997 RMK A01 T02640160  RH  052%=      5-min Rain = 0
KCL1 181352Z 20016G21KT 27/16 A2997 RMK A01 T02650159  RH  052%=      5-min Rain = 0
KCL1 181353Z 19015G21KT 27/16 A2997 RMK A01 T02650160  RH  052%=      5-min Rain = 0
KCL1 181354Z 19012G18KT 27/16 A2997 RMK A01 T02650160  RH  052%=      5-min Rain = 0
KCL1 181355Z 19015G20KT 27/16 A2997 RMK A01 T02650160  RH  053%=      5-min Rain = 0
KCL1 181356Z 19015G20KT 27/16 A2997 RMK A01 T02650160  RH  052%=      5-min Rain = 0
KCL1 181357Z 20010KT 27/16 A2997 RMK A01 T02650160  RH  052%=      5-min Rain = 0
KCL1 181358Z 20007KT 27/16 A2997 RMK A01 T02650160  RH  053%=      5-min Rain = 0
KCL1 181359Z 19012G17KT 27/16 A2997 RMK A01 T02650160  RH  052%=      5-min Rain = 0
KCL1 181400Z 19016KT 27/16 A2997 RMK A01 T02660159  RH  052%=      5-min Rain = 0
KCL1 181401Z 20014KT 27/16 A2997 RMK A01 T02660159  RH  052%=      5-min Rain = 0
KCL1 181402Z 19017KT 27/16 A2997 RMK A01 T02660158  RH  051%=      5-min Rain = 0
KCL1 181403Z 19013KT 27/16 A2997 RMK A01 T02660159  RH  052%=      5-min Rain = 0
KCL1 181404Z 19016G21KT 27/16 A2997 RMK A01 T02660158  RH  052%=      5-min Rain = 0
KCL1 181405Z 20012KT 27/16 A2997 RMK A01 T02660159  RH  052%=      5-min Rain = 0
KCL1 181406Z 19012G19KT 27/16 A2998 RMK A01 T02670160  RH  052%=      5-min Rain = 0
KCL1 181407Z 20013KT 27/16 A2997 RMK A01 T02680160  RH  051%=      5-min Rain = 0
KCL1 181408Z 19014KT 27/16 A2998 RMK A01 T02680159  RH  051%=      5-min Rain = 0
KCL1 181409Z 19014G19KT 27/16 A2998 RMK A01 T02680159  RH  051%=      5-min Rain = 0
KCL1 181410Z 20010KT 27/16 A2998 RMK A01 T02680160  RH  051%=      5-min Rain = 0
KCL1 181411Z 20009G15KT 27/16 A2998 RMK A01 T02680160  RH  052%=      5-min Rain = 0
KCL1 181412Z 21009KT 27/16 A2998 RMK A01 T02700160  RH  051%=      5-min Rain = 0
KCL1 181413Z 20009KT 27/16 A2998 RMK A01 T02700160  RH  051%=      5-min Rain = 0
KCL1 181414Z 20012G17KT 27/16 A2998 RMK A01 T02700160  RH  051%=      5-min Rain = 0
KCL1 181415Z 19014KT 27/16 A2997 RMK A01 T02700160  RH  051%=      5-min Rain = 0
KCL1 181416Z 20010KT 27/16 A2998 RMK A01 T02720161  RH  051%=      5-min Rain = 0
KCL1 181417Z 20013G18KT 27/16 A2998 RMK A01 T02720159  RH  050%=      5-min Rain = 0
KCL1 181418Z 20011KT 27/16 A2997 RMK A01 T02720160  RH  050%=      5-min Rain = 0
KCL1 181419Z 20015G22KT 27/16 A2997 RMK A01 T02720158  RH  050%=      5-min Rain = 0
KCL1 181420Z 19015G20KT 27/16 A2997 RMK A01 T02720158  RH  050%=      5-min Rain = 0
KCL1 181421Z 19012KT 27/16 A2997 RMK A01 T02720159  RH  050%=      5-min Rain = 0
KCL1 181422Z 20016KT 27/16 A2997 RMK A01 T02720158  RH  050%=      5-min Rain = 0
KCL1 181423Z 19013KT 27/16 A2997 RMK A01 T02720157  RH  049%=      5-min Rain = 0
KCL1 181424Z 20014G20KT 27/16 A2997 RMK A01 T02730157  RH  049%=      5-min Rain = 0
KCL1 181425Z 19018G23KT 27/16 A2997 RMK A01 T02740157  RH  049%=      5-min Rain = 0
KCL1 181426Z 19017G23KT 28/16 A2997 RMK A01 T02750156  RH  048%=      5-min Rain = 0
KCL1 181427Z 20015G23KT 28/16 A2997 RMK A01 T02750157  RH  049%=      5-min Rain = 0
KCL1 181428Z 19016KT 28/16 A2997 RMK A01 T02750157  RH  048%=      5-min Rain = 0
KCL1 181429Z 20018KT 28/16 A2997 RMK A01 T02760156  RH  048%=      5-min Rain = 0
KCL1 181430Z 19016KT 28/16 A2997 RMK A01 T02760156  RH  048%=      5-min Rain = 0
KCL1 181431Z 20014KT 28/16 A2997 RMK A01 T02760156  RH  048%=      5-min Rain = 0
KCL1 181432Z 20015G20KT 28/16 A2997 RMK A01 T02760156  RH  048%=      5-min Rain = 0
KCL1 181433Z 19016KT 28/16 A2997 RMK A01 T02770156  RH  048%=      5-min Rain = 0
KCL1 181434Z 19016G21KT 28/16 A2997 RMK A01 T02770156  RH  048%=      5-min Rain = 0
KCL1 181435Z 19015G20KT 28/16 A2997 RMK A01 T02780157  RH  048%=      5-min Rain = 0
KCL1 181436Z 20013G19KT 28/16 A2997 RMK A01 T02780157  RH  048%=      5-min Rain = 0
KCL1 181437Z 19016KT 28/16 A2997 RMK A01 T02790158  RH  048%=      5-min Rain = 0
KCL1 181438Z 20016G21KT 28/16 A2997 RMK A01 T02800155  RH  046%=      5-min Rain = 0
KCL1 181439Z 19016KT 28/15 A2997 RMK A01 T02800154  RH  046%=      5-min Rain = 0
KCL1 181440Z 19012G17KT 28/16 A2997 RMK A01 T02800156  RH  047%=      5-min Rain = 0
KCL1 181441Z 19016KT 28/16 A2997 RMK A01 T02810156  RH  046%=      5-min Rain = 0
KCL1 181442Z 19018KT 28/16 A2997 RMK A01 T02830156  RH  046%=      5-min Rain = 0
KCL1 181443Z 20017KT 28/15 A2997 RMK A01 T02830154  RH  045%=      5-min Rain = 0
KCL1 181444Z 20017KT 28/15 A2997 RMK A01 T02830154  RH  045%=      5-min Rain = 0
KCL1 181445Z 19013KT 28/16 A2997 RMK A01 T02830155  RH  046%=      5-min Rain = 0
KCL1 181446Z 19015KT 28/16 A2997 RMK A01 T02830155  RH  046%=      5-min Rain = 0
KCL1 181447Z 20015KT 28/16 A2997 RMK A01 T02840155  RH  045%=      5-min Rain = 0
KCL1 181448Z 18013KT 29/16 A2997 RMK A01 T02850155  RH  045%=      5-min Rain = 0
KCL1 181449Z 18014G19KT 29/16 A2997 RMK A01 T02860155  RH  045%=      5-min Rain = 0
KCL1 181450Z 19015KT 29/16 A2997 RMK A01 T02870156  RH  045%=      5-min Rain = 0
KCL1 181451Z 21015KT 29/15 A2997 RMK A01 T02880154  RH  044%=      5-min Rain = 0
KCL1 181452Z 20011KT 29/16 A2997 RMK A01 T02880155  RH  044%=      5-min Rain = 0
KCL1 181453Z 20014G19KT 29/16 A2997 RMK A01 T02870155  RH  045%=      5-min Rain = 0
KCL1 181454Z 20014KT 29/15 A2997 RMK A01 T02870154  RH  044%=      5-min Rain = 0
KCL1 181455Z 20016KT 29/15 A2997 RMK A01 T02870154  RH  044%=      5-min Rain = 0
KCL1 181456Z 20014KT 29/15 A2997 RMK A01 T02870154  RH  044%=      5-min Rain = 0
KCL1 181457Z 19017KT 29/15 A2997 RMK A01 T02870154  RH  044%=      5-min Rain = 0
KCL1 181458Z 20016KT 29/16 A2997 RMK A01 T02870155  RH  045%=      5-min Rain = 0
KCL1 181459Z 20015KT 29/16 A2997 RMK A01 T02870155  RH  045%=      5-min Rain = 0
KCL1 181500Z 20014KT 29/16 A2997 RMK A01 T02860156  RH  045%=      5-min Rain = 0
KCL1 181501Z 20013KT 29/16 A2997 RMK A01 T02870156  RH  045%=      5-min Rain = 0
KCL1 181502Z 20013KT 29/16 A2997 RMK A01 T02880156  RH  045%=      5-min Rain = 0
KCL1 181503Z 20015KT 29/16 A2997 RMK A01 T02890156  RH  045%=      5-min Rain = 0
KCL1 181504Z 20015KT 29/16 A2997 RMK A01 T02890156  RH  044%=      5-min Rain = 0
KCL1 181505Z 20014KT 29/16 A2997 RMK A01 T02890157  RH  045%=      5-min Rain = 0
KCL1 181506Z 21013KT 29/16 A2997 RMK A01 T02890156  RH  045%=      5-min Rain = 0
KCL1 181507Z 21013G18KT 29/16 A2997 RMK A01 T02890156  RH  045%=      5-min Rain = 0
KCL1 181508Z 19014G20KT 29/16 A2997 RMK A01 T02890157  RH  045%=      5-min Rain = 0
KCL1 181509Z 22011KT 29/16 A2997 RMK A01 T02900156  RH  044%=      5-min Rain = 0
KCL1 181510Z 21011KT 29/16 A2997 RMK A01 T02900157  RH  044%=      5-min Rain = 0
KCL1 181511Z 21010KT 29/16 A2997 RMK A01 T02910157  RH  044%=      5-min Rain = 0
KCL1 181512Z 22011KT 29/16 A2997 RMK A01 T02910158  RH  044%=      5-min Rain = 0
KCL1 181513Z 19012G17KT 29/16 A2997 RMK A01 T02920158  RH  044%=      5-min Rain = 0
KCL1 181514Z 20010KT 29/16 A2997 RMK A01 T02920158  RH  044%=      5-min Rain = 0
KCL1 181515Z 21012KT 29/16 A2997 RMK A01 T02920159  RH  044%=      5-min Rain = 0
KCL1 181516Z 19011KT 29/16 A2997 RMK A01 T02930158  RH  044%=      5-min Rain = 0
KCL1 181517Z 20014KT 29/16 A2997 RMK A01 T02930158  RH  044%=      5-min Rain = 0
KCL1 181518Z 20011G17KT 29/16 A2997 RMK A01 T02930158  RH  044%=      5-min Rain = 0
KCL1 181519Z 21010KT 29/16 A2997 RMK A01 T02930158  RH  044%=      5-min Rain = 0
KCL1 181520Z 20009KT 29/16 A2997 RMK A01 T02930159  RH  044%=      5-min Rain = 0
KCL1 181521Z 20012KT 29/16 A2997 RMK A01 T02940159  RH  044%=      5-min Rain = 0
KCL1 181522Z 20012KT 30/16 A2997 RMK A01 T02950158  RH  044%=      5-min Rain = 0
KCL1 181523Z 19010KT 30/16 A2997 RMK A01 T02960158  RH  043%=      5-min Rain = 0
KCL1 181524Z 20012KT 30/16 A2997 RMK A01 T02960158  RH  043%=      5-min Rain = 0
KCL1 181525Z 20010G17KT 30/16 A2997 RMK A01 T02970158  RH  043%=      5-min Rain = 0
KCL1 181526Z 21011G16KT 30/16 A2997 RMK A01 T02970158  RH  043%=      5-min Rain = 0
KCL1 181527Z 22014KT 30/16 A2997 RMK A01 T02980157  RH  042%=      5-min Rain = 0
KCL1 181528Z 22011G16KT 30/16 A2997 RMK A01 T02980156  RH  042%=      5-min Rain = 0
KCL1 181529Z 19012KT 30/16 A2997 RMK A01 T02980158  RH  043%=      5-min Rain = 0
KCL1 181530Z 19013G18KT 30/16 A2997 RMK A01 T02990157  RH  042%=      5-min Rain = 0
KCL1 181531Z 20016KT 30/16 A2997 RMK A01 T03000157  RH  042%=      5-min Rain = 0
KCL1 181532Z 19012KT 30/16 A2997 RMK A01 T02990157  RH  042%=      5-min Rain = 0
KCL1 181533Z 19010KT 30/16 A2997 RMK A01 T02980159  RH  043%=      5-min Rain = 0
KCL1 181534Z 20014G19KT 30/16 A2997 RMK A01 T03010158  RH  042%=      5-min Rain = 0
KCL1 181535Z 19014KT 30/16 A2997 RMK A01 T03020157  RH  041%=      5-min Rain = 0
KCL1 181536Z 19012KT 30/16 A2997 RMK A01 T03010156  RH  042%=      5-min Rain = 0
KCL1 181537Z 19011KT 30/16 A2997 RMK A01 T03000157  RH  042%=      5-min Rain = 0
KCL1 181538Z 18013G18KT 30/16 A2997 RMK A01 T03020158  RH  042%=      5-min Rain = 0
KCL1 181539Z 18013KT 30/16 A2997 RMK A01 T03030158  RH  041%=      5-min Rain = 0
KCL1 181540Z 18014KT 30/16 A2997 RMK A01 T03040157  RH  041%=      5-min Rain = 0
KCL1 181541Z 18015KT 31/16 A2997 RMK A01 T03060156  RH  040%=      5-min Rain = 0
KCL1 181542Z 18015KT 31/15 A2997 RMK A01 T03070154  RH  040%=      5-min Rain = 0
KCL1 181543Z 19015KT 31/15 A2997 RMK A01 T03050153  RH  040%=      5-min Rain = 0
KCL1 181544Z 18015KT 30/15 A2997 RMK A01 T03040154  RH  040%=      5-min Rain = 0
KCL1 181545Z 19012KT 31/15 A2997 RMK A01 T03050154  RH  040%=      5-min Rain = 0
KCL1 181546Z 18009KT 31/16 A2997 RMK A01 T03060155  RH  040%=      5-min Rain = 0
KCL1 181547Z 18013KT 31/15 A2997 RMK A01 T03100154  RH  039%=      5-min Rain = 0
KCL1 181548Z 21008G13KT 31/16 A2997 RMK A01 T03110155  RH  039%=      5-min Rain = 0
KCL1 181549Z 19010KT 31/16 A2997 RMK A01 T03120155  RH  039%=      5-min Rain = 0
KCL1 181550Z 21009KT 31/16 A2997 RMK A01 T03120155  RH  039%=      5-min Rain = 0
KCL1 181551Z 21012KT 31/15 A2997 RMK A01 T03120153  RH  038%=      5-min Rain = 0
KCL1 181552Z 21010KT 31/15 A2997 RMK A01 T03110153  RH  038%=      5-min Rain = 0
KCL1 181553Z 20010KT 31/15 A2997 RMK A01 T03100153  RH  039%=      5-min Rain = 0
KCL1 181554Z 19014KT 31/15 A2997 RMK A01 T03100153  RH  039%=      5-min Rain = 0
KCL1 181555Z 19012KT 31/15 A2997 RMK A01 T03100153  RH  039%=      5-min Rain = 0
KCL1 181556Z 18017KT 31/15 A2997 RMK A01 T03100151  RH  038%=      5-min Rain = 0
KCL1 181557Z 18011KT 31/15 A2997 RMK A01 T03110151  RH  038%=      5-min Rain = 0
KCL1 181558Z 18014KT 31/15 A2997 RMK A01 T03120151  RH  038%=      5-min Rain = 0
KCL1 181559Z 18013G18KT 31/15 A2997 RMK A01 T03120152  RH  038%=      5-min Rain = 0
KCL1 181600Z 19011G16KT 31/15 A2997 RMK A01 T03120153  RH  038%=      5-min Rain = 0
KCL1 181601Z 19012KT 31/15 A2997 RMK A01 T03120153  RH  038%=      5-min Rain = 0
KCL1 181602Z 19014KT 31/15 A2997 RMK A01 T03130154  RH  038%=      5-min Rain = 0
KCL1 181603Z 19010KT 31/15 A2997 RMK A01 T03120154  RH  038%=      5-min Rain = 0
KCL1 181604Z 18013KT 31/16 A2997 RMK A01 T03120155  RH  039%=      5-min Rain = 0
KCL1 181605Z 19012KT 31/16 A2997 RMK A01 T03130155  RH  039%=      5-min Rain = 0
KCL1 181606Z 19011KT 31/16 A2997 RMK A01 T03130155  RH  038%=      5-min Rain = 0
KCL1 181607Z 20011KT 31/16 A2997 RMK A01 T03120156  RH  039%=      5-min Rain = 0
KCL1 181608Z 21009KT 31/16 A2997 RMK A01 T03130156  RH  039%=      5-min Rain = 0
KCL1 181609Z 19009KT 32/16 A2997 RMK A01 T03150156  RH  038%=      5-min Rain = 0
KCL1 181610Z 20006KT 31/16 A2997 RMK A01 T03140155  RH  038%=      5-min Rain = 0
KCL1 181611Z 19009KT 31/16 A2997 RMK A01 T03140158  RH  039%=      5-min Rain = 0
KCL1 181612Z 21007KT 32/16 A2997 RMK A01 T03160158  RH  039%=      5-min Rain = 0
KCL1 181613Z 21011KT 32/16 A2997 RMK A01 T03180157  RH  038%=      5-min Rain = 0
KCL1 181614Z 20011KT 32/16 A2997 RMK A01 T03190158  RH  038%=      5-min Rain = 0
KCL1 181615Z 19012G17KT 32/16 A2997 RMK A01 T03180158  RH  038%=      5-min Rain = 0
KCL1 181616Z 18011KT 32/16 A2997 RMK A01 T03160158  RH  039%=      5-min Rain = 0
KCL1 181617Z 19010KT 32/16 A2997 RMK A01 T03160159  RH  039%=      5-min Rain = 0
KCL1 181618Z 17009KT 32/16 A2997 RMK A01 T03180160  RH  039%=      5-min Rain = 0
KCL1 181619Z 20008KT 32/16 A2997 RMK A01 T03200161  RH  039%=      5-min Rain = 0
KCL1 181620Z 20007KT 32/16 A2997 RMK A01 T03220161  RH  038%=      5-min Rain = 0
KCL1 181621Z 19009KT 32/16 A2997 RMK A01 T03230161  RH  038%=      5-min Rain = 0
KCL1 181622Z 18009KT 32/16 A2997 RMK A01 T03230163  RH  038%=      5-min Rain = 0
KCL1 181623Z 18013KT 32/16 A2997 RMK A01 T03240161  RH  038%=      5-min Rain = 0
KCL1 181624Z 18011KT 32/16 A2997 RMK A01 T03240161  RH  038%=      5-min Rain = 0
KCL1 181625Z 18011G16KT 32/16 A2997 RMK A01 T03230162  RH  038%=      5-min Rain = 0
KCL1 181626Z 20010G15KT 32/16 A2997 RMK A01 T03230161  RH  038%=      5-min Rain = 0
KCL1 181627Z 19011KT 32/16 A2997 RMK A01 T03230160  RH  037%=      5-min Rain = 0
KCL1 181628Z 19010KT 32/16 A2997 RMK A01 T03200160  RH  038%=      5-min Rain = 0
KCL1 181629Z 20011KT 32/16 A2997 RMK A01 T03200159  RH  038%=      5-min Rain = 0
KCL1 181630Z 20011KT 32/16 A2997 RMK A01 T03180158  RH  038%=      5-min Rain = 0
KCL1 181631Z 19011KT 32/16 A2997 RMK A01 T03160159  RH  039%=      5-min Rain = 0
KCL1 181632Z 20008KT 32/16 A2997 RMK A01 T03170161  RH  039%=      5-min Rain = 0
KCL1 181633Z 18008KT 32/16 A2997 RMK A01 T03200162  RH  039%=      5-min Rain = 0
KCL1 181634Z 20010KT 32/16 A2997 RMK A01 T03230161  RH  038%=      5-min Rain = 0
KCL1 181635Z 19008KT 32/16 A2997 RMK A01 T03230160  RH  037%=      5-min Rain = 0
KCL1 181636Z 17012KT 32/16 A2997 RMK A01 T03230161  RH  038%=      5-min Rain = 0
KCL1 181637Z 19010KT 33/16 A2997 RMK A01 T03250161  RH  037%=      5-min Rain = 0
KCL1 181638Z 20012KT 33/16 A2997 RMK A01 T03260159  RH  037%=      5-min Rain = 0
KCL1 181639Z 19012KT 33/16 A2997 RMK A01 T03260158  RH  037%=      5-min Rain = 0
KCL1 181640Z 19012KT 33/16 A2997 RMK A01 T03260158  RH  036%=      5-min Rain = 0
KCL1 181641Z 20014KT 33/16 A2997 RMK A01 T03260156  RH  036%=      5-min Rain = 0
KCL1 181642Z 19010G15KT 33/16 A2997 RMK A01 T03250157  RH  036%=      5-min Rain = 0
KCL1 181643Z 19012KT 32/16 A2997 RMK A01 T03240157  RH  037%=      5-min Rain = 0
KCL1 181644Z 21013KT 32/16 A2997 RMK A01 T03240156  RH  036%=      5-min Rain = 0
KCL1 181645Z 21013KT 32/16 A2997 RMK A01 T03230155  RH  036%=      5-min Rain = 0
KCL1 181646Z 21009KT 32/16 A2997 RMK A01 T03220155  RH  037%=      5-min Rain = 0
KCL1 181647Z 20009KT 32/16 A2997 RMK A01 T03210155  RH  037%=      5-min Rain = 0
KCL1 181648Z 21010KT 32/16 A2997 RMK A01 T03230157  RH  037%=      5-min Rain = 0
KCL1 181649Z 20010KT 32/16 A2997 RMK A01 T03240156  RH  036%=      5-min Rain = 0
KCL1 181650Z 20010KT 32/16 A2997 RMK A01 T03240157  RH  037%=      5-min Rain = 0
KCL1 181651Z 19009G14KT 33/16 A2997 RMK A01 T03250157  RH  036%=      5-min Rain = 0
KCL1 181652Z 21011KT 33/16 A2997 RMK A01 T03260157  RH  036%=      5-min Rain = 0
KCL1 181653Z 23010KT 33/16 A2997 RMK A01 T03260156  RH  036%=      5-min Rain = 0
KCL1 181654Z 23007KT 33/16 A2997 RMK A01 T03270157  RH  036%=      5-min Rain = 0
KCL1 181655Z 21014KT 33/16 A2996 RMK A01 T03270157  RH  036%=      5-min Rain = 0
KCL1 181656Z 19012G17KT 33/16 A2997 RMK A01 T03280156  RH  036%=      5-min Rain = 0
KCL1 181657Z 19015KT 33/16 A2996 RMK A01 T03290155  RH  035%=      5-min Rain = 0
KCL1 181658Z 20011KT 33/16 A2996 RMK A01 T03280156  RH  035%=      5-min Rain = 0
KCL1 181659Z 20010KT 33/15 A2996 RMK A01 T03280154  RH  035%=      5-min Rain = 0
KCL1 181700Z 19010G16KT 33/15 A2996 RMK A01 T03280153  RH  035%=      5-min Rain = 0
KCL1 181701Z 19012KT 33/16 A2996 RMK A01 T03270155  RH  036%=      5-min Rain = 0
KCL1 181702Z 19011KT 33/15 A2996 RMK A01 T03280154  RH  035%=      5-min Rain = 0
KCL1 181703Z 19011KT 33/16 A2996 RMK A01 T03290156  RH  035%=      5-min Rain = 0
KCL1 181704Z 17011KT 33/16 A2996 RMK A01 T03290157  RH  035%=      5-min Rain = 0
KCL1 181705Z 19012KT 33/16 A2996 RMK A01 T03310157  RH  035%=      5-min Rain = 0
KCL1 181706Z 18012KT 33/15 A2996 RMK A01 T03300153  RH  034%=      5-min Rain = 0
KCL1 181707Z 19012KT 33/16 A2996 RMK A01 T03300155  RH  035%=      5-min Rain = 0
KCL1 181708Z 21012G17KT 33/16 A2996 RMK A01 T03330156  RH  035%=      5-min Rain = 0
KCL1 181709Z 22012KT 33/15 A2996 RMK A01 T03330152  RH  034%=      5-min Rain = 0
KCL1 181710Z 22013G18KT 33/15 A2996 RMK A01 T03320152  RH  034%=      5-min Rain = 0
KCL1 181711Z 22013KT 33/15 A2996 RMK A01 T03310150  RH  034%=      5-min Rain = 0
KCL1 181712Z 19010KT 33/15 A2996 RMK A01 T03310151  RH  034%=      5-min Rain = 0
KCL1 181713Z 19012KT 33/15 A2996 RMK A01 T03320154  RH  034%=      5-min Rain = 0
KCL1 181714Z 19012KT 33/15 A2996 RMK A01 T03340153  RH  034%=      5-min Rain = 0
KCL1 181715Z 19009KT 33/15 A2996 RMK A01 T03330154  RH  034%=      5-min Rain = 0
KCL1 181716Z 18010KT 33/16 A2995 RMK A01 T03330155  RH  034%=      5-min Rain = 0
KCL1 181717Z 18012KT 34/16 A2995 RMK A01 T03350156  RH  034%=      5-min Rain = 0
KCL1 181718Z 19013KT 34/16 A2995 RMK A01 T03360156  RH  034%=      5-min Rain = 0
KCL1 181719Z 19012KT 34/16 A2995 RMK A01 T03360155  RH  034%=      5-min Rain = 0
KCL1 181720Z 19013G19KT 34/15 A2995 RMK A01 T03390154  RH  033%=      5-min Rain = 0
KCL1 181721Z 19013KT 34/15 A2995 RMK A01 T03410152  RH  032%=      5-min Rain = 0
KCL1 181722Z 19014KT 34/15 A2995 RMK A01 T03390150  RH  032%=      5-min Rain = 0
KCL1 181723Z 18014KT 34/15 A2995 RMK A01 T03360151  RH  033%=      5-min Rain = 0
KCL1 181724Z 19011KT 34/15 A2995 RMK A01 T03360152  RH  033%=      5-min Rain = 0
KCL1 181725Z 19012KT 34/15 A2995 RMK A01 T03390153  RH  033%=      5-min Rain = 0
KCL1 181726Z 18010KT 34/15 A2995 RMK A01 T03400151  RH  032%=      5-min Rain = 0
KCL1 181727Z 19011G17KT 34/15 A2995 RMK A01 T03390152  RH  033%=      5-min Rain = 0
KCL1 181728Z 20012KT 34/15 A2995 RMK A01 T03400151  RH  032%=      5-min Rain = 0
KCL1 181729Z 19012KT 34/15 A2995 RMK A01 T03400151  RH  032%=      5-min Rain = 0
KCL1 181730Z 19009G14KT 34/15 A2995 RMK A01 T03390151  RH  032%=      5-min Rain = 0
KCL1 181731Z 23007G12KT 34/15 A2995 RMK A01 T03370151  RH  033%=      5-min Rain = 0
KCL1 181732Z 19007G13KT 34/15 A2995 RMK A01 T03380152  RH  033%=      5-min Rain = 0
KCL1 181733Z 21008KT 34/15 A2995 RMK A01 T03430151  RH  032%=      5-min Rain = 0
KCL1 181734Z 22012G17KT 34/15 A2995 RMK A01 T03440149  RH  031%=      5-min Rain = 0
KCL1 181735Z 22012G17KT 34/15 A2995 RMK A01 T03420149  RH  031%=      5-min Rain = 0
KCL1 181736Z 22013KT 34/15 A2995 RMK A01 T03400150  RH  032%=      5-min Rain = 0
KCL1 181737Z 22010KT 34/15 A2995 RMK A01 T03400151  RH  032%=      5-min Rain = 0
KCL1 181738Z 22009KT 34/15 A2995 RMK A01 T03400150  RH  032%=      5-min Rain = 0
KCL1 181739Z 20008KT 34/15 A2995 RMK A01 T03420152  RH  032%=      5-min Rain = 0
KCL1 181740Z 21007KT 35/15 A2995 RMK A01 T03450151  RH  031%=      5-min Rain = 0
KCL1 181741Z 21007KT 35/15 A2995 RMK A01 T03460152  RH  031%=      5-min Rain = 0
KCL1 181742Z 20008KT 35/15 A2995 RMK A01 T03490152  RH  031%=      5-min Rain = 0
KCL1 181743Z 18011KT 35/15 A2995 RMK A01 T03490152  RH  031%=      5-min Rain = 0
KCL1 181744Z 19010KT 35/15 A2995 RMK A01 T03500153  RH  031%=      5-min Rain = 0
KCL1 181745Z 20010KT 35/15 A2995 RMK A01 T03500150  RH  030%=      5-min Rain = 0
KCL1 181746Z 18010KT 35/15 A2995 RMK A01 T03480150  RH  031%=      5-min Rain = 0
KCL1 181747Z 19009KT 35/15 A2995 RMK A01 T03480150  RH  031%=      5-min Rain = 0
KCL1 181748Z 17008KT 35/15 A2995 RMK A01 T03500152  RH  031%=      5-min Rain = 0
KCL1 181749Z 22011KT 35/15 A2995 RMK A01 T03540153  RH  030%=      5-min Rain = 0
KCL1 181750Z 22011KT 35/15 A2995 RMK A01 T03540151  RH  030%=      5-min Rain = 0
KCL1 181751Z 21009KT 35/15 A2995 RMK A01 T03510148  RH  030%=      5-min Rain = 0
KCL1 181752Z 21009KT 35/15 A2995 RMK A01 T03500149  RH  030%=      5-min Rain = 0
KCL1 181753Z 21009KT 35/15 A2995 RMK A01 T03500150  RH  030%=      5-min Rain = 0
KCL1 181754Z 19010G15KT 35/15 A2995 RMK A01 T03510151  RH  030%=      5-min Rain = 0
KCL1 181755Z 20006G11KT 35/15 A2995 RMK A01 T03520154  RH  031%=      5-min Rain = 0
KCL1 181756Z 22007G12KT 35/15 A2994 RMK A01 T03530151  RH  030%=      5-min Rain = 0
KCL1 181757Z 22010G15KT 35/15 A2994 RMK A01 T03510149  RH  030%=      5-min Rain = 0
KCL1 181758Z 20014KT 35/15 A2994 RMK A01 T03490147  RH  030%=      5-min Rain = 0
KCL1 181759Z 22011KT 35/15 A2994 RMK A01 T03490146  RH  030%=      5-min Rain = 0
KCL1 181800Z 23012KT 35/15 A2994 RMK A01 T03490145  RH  029%=      5-min Rain = 0
KCL1 181801Z 21011KT 35/15 A2994 RMK A01 T03490146  RH  030%=      5-min Rain = 0
KCL1 181802Z 20010KT 35/15 A2994 RMK A01 T03480148  RH  030%=      5-min Rain = 0
KCL1 181803Z 21008KT 35/15 A2994 RMK A01 T03510150  RH  030%=      5-min Rain = 0
KCL1 181804Z 20009KT 35/15 A2994 RMK A01 T03520152  RH  030%=      5-min Rain = 0
KCL1 181805Z 21010KT 35/15 A2994 RMK A01 T03530152  RH  030%=      5-min Rain = 0
KCL1 181806Z 21009KT 35/15 A2994 RMK A01 T03540151  RH  030%=      5-min Rain = 0
KCL1 181807Z 22008KT 35/15 A2994 RMK A01 T03540152  RH  030%=      5-min Rain = 0
KCL1 181808Z 21009KT 36/15 A2994 RMK A01 T03560150  RH  029%=      5-min Rain = 0
KCL1 181809Z 19008KT 35/15 A2994 RMK A01 T03540148  RH  029%=      5-min Rain = 0
KCL1 181810Z 20011KT 35/15 A2994 RMK A01 T03520149  RH  030%=      5-min Rain = 0
KCL1 181811Z 21012KT 35/15 A2994 RMK A01 T03530147  RH  029%=      5-min Rain = 0
KCL1 181812Z 19015KT 35/15 A2993 RMK A01 T03540147  RH  029%=      5-min Rain = 0
KCL1 181813Z 17015KT 35/15 A2994 RMK A01 T03540147  RH  029%=      5-min Rain = 0
KCL1 181814Z 17014KT 36/15 A2994 RMK A01 T03550149  RH  029%=      5-min Rain = 0
KCL1 181815Z 17013KT 36/15 A2994 RMK A01 T03560149  RH  029%=      5-min Rain = 0
KCL1 181816Z 18013KT 36/15 A2994 RMK A01 T03580149  RH  029%=      5-min Rain = 0
KCL1 181817Z 19010G16KT 36/15 A2994 RMK A01 T03580148  RH  029%=      5-min Rain = 0
KCL1 181818Z 19010KT 36/15 A2994 RMK A01 T03610150  RH  029%=      5-min Rain = 0
KCL1 181819Z 20013G19KT 36/15 A2993 RMK A01 T03640148  RH  028%=      5-min Rain = 0
KCL1 181820Z 20014KT 36/15 A2993 RMK A01 T03610147  RH  028%=      5-min Rain = 0
KCL1 181821Z 19014KT 36/15 A2993 RMK A01 T03580146  RH  028%=      5-min Rain = 0
KCL1 181822Z 19015KT 36/15 A2993 RMK A01 T03550147  RH  029%=      5-min Rain = 0
KCL1 181823Z 20016G21KT 35/14 A2993 RMK A01 T03540144  RH  029%=      5-min Rain = 0
KCL1 181824Z 20017KT 35/14 A2993 RMK A01 T03530141  RH  028%=      5-min Rain = 0
KCL1 181825Z 19016KT 35/14 A2993 RMK A01 T03530142  RH  028%=      5-min Rain = 0
KCL1 181826Z 19015KT 35/14 A2993 RMK A01 T03530144  RH  029%=      5-min Rain = 0
KCL1 181827Z 20013KT 35/15 A2993 RMK A01 T03530147  RH  029%=      5-min Rain = 0
KCL1 181828Z 21009KT 36/15 A2993 RMK A01 T03550147  RH  029%=      5-min Rain = 0
KCL1 181829Z 19010KT 36/15 A2993 RMK A01 T03570149  RH  029%=      5-min Rain = 0
KCL1 181830Z 19009KT 36/15 A2993 RMK A01 T03600149  RH  028%=      5-min Rain = 0
KCL1 181831Z 19010KT 36/15 A2993 RMK A01 T03620149  RH  028%=      5-min Rain = 0
KCL1 181832Z 19009KT 36/15 A2993 RMK A01 T03620150  RH  028%=      5-min Rain = 0
KCL1 181833Z 20010KT 36/15 A2993 RMK A01 T03620150  RH  028%=      5-min Rain = 0
KCL1 181834Z 22010G15KT 36/15 A2993 RMK A01 T03620149  RH  028%=      5-min Rain = 0
KCL1 181835Z 21012KT 36/15 A2993 RMK A01 T03600147  RH  028%=      5-min Rain = 0
KCL1 181836Z 22013KT 36/14 A2993 RMK A01 T03570144  RH  028%=      5-min Rain = 0
KCL1 181837Z 21013KT 36/14 A2993 RMK A01 T03570144  RH  028%=      5-min Rain = 0
KCL1 181838Z 20010KT 36/15 A2993 RMK A01 T03560145  RH  028%=      5-min Rain = 0
KCL1 181839Z 23008KT 36/15 A2993 RMK A01 T03590147  RH  028%=      5-min Rain = 0
KCL1 181840Z 23008KT 36/15 A2993 RMK A01 T03610148  RH  028%=      5-min Rain = 0
KCL1 181841Z 21010KT 36/15 A2993 RMK A01 T03620148  RH  028%=      5-min Rain = 0
KCL1 181842Z 20010KT 36/15 A2993 RMK A01 T03630148  RH  028%=      5-min Rain = 0
KCL1 181843Z 20010KT 36/15 A2993 RMK A01 T03600148  RH  028%=      5-min Rain = 0
KCL1 181844Z 21014G20KT 36/15 A2992 RMK A01 T03580145  RH  028%=      5-min Rain = 0
KCL1 181845Z 21013G18KT 36/14 A2992 RMK A01 T03580144  RH  028%=      5-min Rain = 0
KCL1 181846Z 20008G14KT 36/15 A2993 RMK A01 T03580145  RH  028%=      5-min Rain = 0
KCL1 181847Z 22009G14KT 36/15 A2993 RMK A01 T03600145  RH  028%=      5-min Rain = 0
KCL1 181848Z 22012KT 36/14 A2992 RMK A01 T03610144  RH  028%=      5-min Rain = 0
KCL1 181849Z 22015KT 36/14 A2992 RMK A01 T03600144  RH  028%=      5-min Rain = 0
KCL1 181850Z 22011KT 36/14 A2992 RMK A01 T03590144  RH  028%=      5-min Rain = 0
KCL1 181851Z 20011KT 36/15 A2992 RMK A01 T03600145  RH  028%=      5-min Rain = 0
KCL1 181852Z 19013KT 36/15 A2992 RMK A01 T03630145  RH  027%=      5-min Rain = 0
KCL1 181853Z 18015KT 36/14 A2992 RMK A01 T03620140  RH  027%=      5-min Rain = 0
KCL1 181854Z 17013KT 36/14 A2992 RMK A01 T03610139  RH  027%=      5-min Rain = 0
KCL1 181855Z 19011KT 36/14 A2992 RMK A01 T03640144  RH  027%=      5-min Rain = 0
KCL1 181856Z 20014G19KT 37/14 A2992 RMK A01 T03670144  RH  027%=      5-min Rain = 0
KCL1 181857Z 19014G20KT 36/14 A2992 RMK A01 T03640142  RH  027%=      5-min Rain = 0
KCL1 181858Z 23015G20KT 36/14 A2992 RMK A01 T03620139  RH  026%=      5-min Rain = 0
KCL1 181859Z 22012G17KT 36/14 A2992 RMK A01 T03610138  RH  027%=      5-min Rain = 0
KCL1 181900Z 22016G22KT 36/14 A2992 RMK A01 T03600140  RH  027%=      5-min Rain = 0
KCL1 181901Z 22012KT 36/14 A2992 RMK A01 T03600142  RH  027%=      5-min Rain = 0
KCL1 181902Z 21014G21KT 36/14 A2992 RMK A01 T03600142  RH  027%=      5-min Rain = 0
KCL1 181903Z 22015KT 36/14 A2992 RMK A01 T03610141  RH  027%=      5-min Rain = 0
KCL1 181904Z 22014KT 36/14 A2992 RMK A01 T03590142  RH  027%=      5-min Rain = 0
KCL1 181905Z 24010KT 36/14 A2992 RMK A01 T03590143  RH  028%=      5-min Rain = 0
KCL1 181906Z 24011KT 36/14 A2992 RMK A01 T03620144  RH  027%=      5-min Rain = 0
KCL1 181907Z 22010KT 36/15 A2992 RMK A01 T03630145  RH  027%=      5-min Rain = 0
KCL1 181908Z 23013KT 37/15 A2992 RMK A01 T03650145  RH  027%=      5-min Rain = 0
KCL1 181909Z 21014KT 37/14 A2992 RMK A01 T03650144  RH  027%=      5-min Rain = 0
KCL1 181910Z 22011G16KT 36/14 A2992 RMK A01 T03640143  RH  027%=      5-min Rain = 0
KCL1 181911Z 23013G18KT 36/14 A2992 RMK A01 T03630144  RH  027%=      5-min Rain = 0
KCL1 181912Z 23016G22KT 37/14 A2991 RMK A01 T03650141  RH  026%=      5-min Rain = 0
KCL1 181913Z 21016G21KT 37/14 A2992 RMK A01 T03650141  RH  026%=      5-min Rain = 0
KCL1 181914Z 22017KT 36/14 A2992 RMK A01 T03630140  RH  026%=      5-min Rain = 0
KCL1 181915Z 22011G18KT 36/14 A2992 RMK A01 T03600140  RH  027%=      5-min Rain = 0
KCL1 181916Z 21015G20KT 36/14 A2991 RMK A01 T03600141  RH  027%=      5-min Rain = 0
KCL1 181917Z 20009G15KT 36/14 A2991 RMK A01 T03630139  RH  026%=      5-min Rain = 0
KCL1 181918Z 22011KT 36/14 A2991 RMK A01 T03640141  RH  027%=      5-min Rain = 0
KCL1 181919Z 21012KT 37/14 A2991 RMK A01 T03670141  RH  026%=      5-min Rain = 0
KCL1 181920Z 22009G16KT 37/14 A2991 RMK A01 T03680139  RH  026%=      5-min Rain = 0
KCL1 181921Z 23012G19KT 37/14 A2991 RMK A01 T03670140  RH  026%=      5-min Rain = 0
KCL1 181922Z 21014G19KT 37/14 A2991 RMK A01 T03670141  RH  026%=      5-min Rain = 0
KCL1 181923Z 22011G16KT 36/14 A2991 RMK A01 T03640142  RH  027%=      5-min Rain = 0
KCL1 181924Z 23012G20KT 36/14 A2991 RMK A01 T03640143  RH  027%=      5-min Rain = 0
KCL1 181925Z 22012KT 37/14 A2991 RMK A01 T03650144  RH  027%=      5-min Rain = 0
KCL1 181926Z 20013G19KT 37/15 A2991 RMK A01 T03660145  RH  027%=      5-min Rain = 0
KCL1 181927Z 19016KT 37/15 A2991 RMK A01 T03670145  RH  027%=      5-min Rain = 0
KCL1 181928Z 17013G18KT 37/15 A2991 RMK A01 T03670146  RH  027%=      5-min Rain = 0
KCL1 181929Z 20013G20KT 37/15 A2991 RMK A01 T03670146  RH  027%=      5-min Rain = 0
KCL1 181930Z 21010G15KT 37/15 A2991 RMK A01 T03680145  RH  027%=      5-min Rain = 0
KCL1 181931Z 19012KT 37/15 A2991 RMK A01 T03710146  RH  026%=      5-min Rain = 0
KCL1 181932Z 19010KT 37/15 A2991 RMK A01 T03730147  RH  026%=      5-min Rain = 0
KCL1 181933Z 19014G19KT 37/15 A2991 RMK A01 T03740146  RH  026%=      5-min Rain = 0
KCL1 181934Z 19011KT 37/15 A2991 RMK A01 T03720145  RH  026%=      5-min Rain = 0
KCL1 181935Z 18013G18KT 37/14 A2991 RMK A01 T03720144  RH  026%=      5-min Rain = 0
KCL1 181936Z 17013G18KT 37/15 A2991 RMK A01 T03740146  RH  026%=      5-min Rain = 0
KCL1 181937Z 16015G21KT 38/14 A299 RMK A01 T03770143  RH  025%=      5-min Rain = 0
KCL1 181938Z 18014G19KT 38/14 A2991 RMK A01 T03760144  RH  025%=      5-min Rain = 0
KCL1 181939Z 18012G17KT 38/14 A2991 RMK A01 T03780143  RH  025%=      5-min Rain = 0
KCL1 181940Z 17013KT 38/14 A2991 RMK A01 T03780143  RH  025%=      5-min Rain = 0
KCL1 181941Z 18013G18KT 38/14 A2991 RMK A01 T03790143  RH  025%=      5-min Rain = 0
KCL1 181942Z 18012G18KT 38/14 A2991 RMK A01 T03780143  RH  025%=      5-min Rain = 0
KCL1 181943Z 20010G16KT 38/14 A2991 RMK A01 T03780142  RH  025%=      5-min Rain = 0
KCL1 181944Z 19011KT 38/14 A299 RMK A01 T03790141  RH  024%=      5-min Rain = 0
KCL1 181945Z 18010G17KT 38/14 A299 RMK A01 T03760141  RH  025%=      5-min Rain = 0
KCL1 181946Z 20015G20KT 38/14 A299 RMK A01 T03770141  RH  025%=      5-min Rain = 0
KCL1 181947Z 18016KT 38/14 A2991 RMK A01 T03770138  RH  024%=      5-min Rain = 0
KCL1 181948Z 17014KT 37/14 A2991 RMK A01 T03730141  RH  025%=      5-min Rain = 0
KCL1 181949Z 19014KT 37/14 A2991 RMK A01 T03740141  RH  025%=      5-min Rain = 0
KCL1 181950Z 18012KT 37/14 A2991 RMK A01 T03740140  RH  025%=      5-min Rain = 0
KCL1 181951Z 19010KT 37/14 A299 RMK A01 T03720140  RH  025%=      5-min Rain = 0
KCL1 181952Z 19012KT 37/14 A299 RMK A01 T03710139  RH  025%=      5-min Rain = 0
KCL1 181953Z 19013KT 37/14 A299 RMK A01 T03710138  RH  025%=      5-min Rain = 0
KCL1 181954Z 20015G22KT 37/14 A299 RMK A01 T03730140  RH  025%=      5-min Rain = 0
KCL1 181955Z 19014KT 37/14 A2991 RMK A01 T03740139  RH  025%=      5-min Rain = 0
KCL1 181956Z 19011KT 37/14 A299 RMK A01 T03730140  RH  025%=      5-min Rain = 0
KCL1 181957Z 20013G19KT 37/14 A299 RMK A01 T03740141  RH  025%=      5-min Rain = 0
KCL1 181958Z 20014KT 37/14 A299 RMK A01 T03740140  RH  025%=      5-min Rain = 0
KCL1 181959Z 18016G22KT 37/14 A299 RMK A01 T03720142  RH  025%=      5-min Rain = 0
KCL1 182000Z 17015KT 37/14 A299 RMK A01 T03730141  RH  025%=      5-min Rain = 0
KCL1 182001Z 18013G19KT 37/14 A299 RMK A01 T03730140  RH  025%=      5-min Rain = 0
KCL1 182002Z 17013G18KT 37/14 A299 RMK A01 T03720139  RH  025%=      5-min Rain = 0
KCL1 182003Z 16013G18KT 37/14 A299 RMK A01 T03720141  RH  025%=      5-min Rain = 0
KCL1 182004Z 16017KT 37/14 A299 RMK A01 T03730140  RH  025%=      5-min Rain = 0
KCL1 182005Z 18013G18KT 37/14 A299 RMK A01 T03740140  RH  025%=      5-min Rain = 0
KCL1 182006Z 18012KT 37/14 A299 RMK A01 T03740142  RH  025%=      5-min Rain = 0
KCL1 182007Z 19011G16KT 37/14 A299 RMK A01 T03740142  RH  025%=      5-min Rain = 0
KCL1 182008Z 21012KT 38/14 A299 RMK A01 T03760141  RH  025%=      5-min Rain = 0
KCL1 182009Z 21014KT 38/14 A299 RMK A01 T03760139  RH  024%=      5-min Rain = 0
KCL1 182010Z 18010G16KT 37/14 A299 RMK A01 T03730138  RH  025%=      5-min Rain = 0
KCL1 182011Z 20010G17KT 37/14 A299 RMK A01 T03720140  RH  025%=      5-min Rain = 0
KCL1 182012Z 20016KT 37/14 A299 RMK A01 T03730141  RH  025%=      5-min Rain = 0
KCL1 182013Z 20015KT 37/14 A299 RMK A01 T03720141  RH  025%=      5-min Rain = 0
KCL1 182014Z 18012KT 37/14 A299 RMK A01 T03700143  RH  026%=      5-min Rain = 0
KCL1 182015Z 19009KT 37/14 A299 RMK A01 T03710142  RH  026%=      5-min Rain = 0
KCL1 182016Z 22009KT 37/14 A299 RMK A01 T03740143  RH  025%=      5-min Rain = 0
KCL1 182017Z 20011KT 38/14 A299 RMK A01 T03760141  RH  025%=      5-min Rain = 0
KCL1 182018Z 21008KT 38/14 A299 RMK A01 T03760142  RH  025%=      5-min Rain = 0
KCL1 182019Z 20012KT 38/14 A299 RMK A01 T03780142  RH  025%=      5-min Rain = 0
KCL1 182020Z 18010KT 38/14 A299 RMK A01 T03790142  RH  025%=      5-min Rain = 0
KCL1 182021Z 18011KT 38/14 A299 RMK A01 T03800143  RH  025%=      5-min Rain = 0
KCL1 182022Z 18011KT 38/14 A299 RMK A01 T03800143  RH  025%=      5-min Rain = 0
KCL1 182023Z 18011KT 38/14 A299 RMK A01 T03790141  RH  024%=      5-min Rain = 0
KCL1 182024Z 17012G17KT 38/14 A2989 RMK A01 T03760141  RH  025%=      5-min Rain = 0
KCL1 182025Z 19011G16KT 37/14 A2989 RMK A01 T03740142  RH  025%=      5-min Rain = 0
KCL1 182026Z 21012KT 38/14 A2989 RMK A01 T03750140  RH  025%=      5-min Rain = 0
KCL1 182027Z 21012G18KT 38/14 A2989 RMK A01 T03760140  RH  025%=      5-min Rain = 0
KCL1 182028Z 23014KT 38/14 A2989 RMK A01 T03750140  RH  025%=      5-min Rain = 0
KCL1 182029Z 22014G19KT 37/14 A2989 RMK A01 T03740139  RH  025%=      5-min Rain = 0
KCL1 182030Z 21012G17KT 37/14 A2989 RMK A01 T03720139  RH  025%=      5-min Rain = 0
KCL1 182031Z 21011G16KT 37/14 A2989 RMK A01 T03720138  RH  025%=      5-min Rain = 0
KCL1 182032Z 21012G18KT 37/14 A2989 RMK A01 T03700139  RH  025%=      5-min Rain = 0
KCL1 182033Z 20009G15KT 37/14 A2989 RMK A01 T03710140  RH  025%=      5-min Rain = 0
KCL1 182034Z 19011KT 38/14 A2989 RMK A01 T03750140  RH  025%=      5-min Rain = 0
KCL1 182035Z 19012KT 38/14 A2989 RMK A01 T03760139  RH  025%=      5-min Rain = 0
KCL1 182036Z 18007KT 38/14 A2989 RMK A01 T03760142  RH  025%=      5-min Rain = 0
KCL1 182037Z 19014G20KT 38/14 A2989 RMK A01 T03790142  RH  024%=      5-min Rain = 0
KCL1 182038Z 17015KT 38/14 A2989 RMK A01 T03800142  RH  025%=      5-min Rain = 0
KCL1 182039Z 18014G19KT 38/14 A2989 RMK A01 T03800142  RH  024%=      5-min Rain = 0
KCL1 182040Z 19009KT 38/14 A2989 RMK A01 T03800141  RH  024%=      5-min Rain = 0
KCL1 182041Z 18011KT 38/14 A2989 RMK A01 T03810141  RH  024%=      5-min Rain = 0
KCL1 182042Z 19013KT 38/14 A2989 RMK A01 T03810141  RH  024%=      5-min Rain = 0
KCL1 182043Z 19017KT 38/14 A2989 RMK A01 T03810141  RH  024%=      5-min Rain = 0
KCL1 182044Z 19016G22KT 38/14 A2989 RMK A01 T03780139  RH  024%=      5-min Rain = 0
KCL1 182045Z 20014KT 38/14 A2989 RMK A01 T03750138  RH  024%=      5-min Rain = 0
KCL1 182046Z 20013G18KT 37/14 A2989 RMK A01 T03740138  RH  025%=      5-min Rain = 0
KCL1 182047Z 18016KT 37/14 A2989 RMK A01 T03740138  RH  025%=      5-min Rain = 0
KCL1 182048Z 19015KT 37/14 A2989 RMK A01 T03740136  RH  024%=      5-min Rain = 0
KCL1 182049Z 18014KT 38/14 A2989 RMK A01 T03750137  RH  024%=      5-min Rain = 0
KCL1 182050Z 18015KT 38/14 A2989 RMK A01 T03750140  RH  025%=      5-min Rain = 0
KCL1 182051Z 16013KT 38/14 A2989 RMK A01 T03750140  RH  025%=      5-min Rain = 0
KCL1 182052Z 16008KT 38/14 A2989 RMK A01 T03750141  RH  025%=      5-min Rain = 0
KCL1 182053Z 18013KT 38/14 A2989 RMK A01 T03770143  RH  025%=      5-min Rain = 0
KCL1 182054Z 18014KT 38/14 A2989 RMK A01 T03770142  RH  025%=      5-min Rain = 0
KCL1 182055Z 17014KT 38/14 A2989 RMK A01 T03780141  RH  025%=      5-min Rain = 0
KCL1 182056Z 19011KT 38/14 A2989 RMK A01 T03780141  RH  025%=      5-min Rain = 0
KCL1 182057Z 18013KT 38/14 A2989 RMK A01 T03770140  RH  025%=      5-min Rain = 0
KCL1 182058Z 17011KT 38/14 A2989 RMK A01 T03760142  RH  025%=      5-min Rain = 0
KCL1 182059Z 16015KT 38/14 A2989 RMK A01 T03790141  RH  024%=      5-min Rain = 0
KCL1 182100Z 16012KT 38/14 A2989 RMK A01 T03810141  RH  024%=      5-min Rain = 0
KCL1 182101Z 16015KT 38/14 A2989 RMK A01 T03820142  RH  024%=      5-min Rain = 0
KCL1 182102Z 17013G20KT 38/14 A2989 RMK A01 T03830142  RH  024%=      5-min Rain = 0
KCL1 182103Z 17015KT 38/14 A2989 RMK A01 T03820138  RH  024%=      5-min Rain = 0
KCL1 182104Z 18009KT 38/14 A2989 RMK A01 T03780139  RH  024%=      5-min Rain = 0
KCL1 182105Z 18015G20KT 38/14 A2989 RMK A01 T03790138  RH  024%=      5-min Rain = 0
KCL1 182106Z 17013G18KT 38/14 A2989 RMK A01 T03800138  RH  024%=      5-min Rain = 0
KCL1 182107Z 17015G22KT 38/14 A2989 RMK A01 T03790136  RH  024%=      5-min Rain = 0
KCL1 182108Z 16016KT 38/13 A2989 RMK A01 T03780134  RH  023%=      5-min Rain = 0
KCL1 182109Z 18013G21KT 38/14 A2989 RMK A01 T03780135  RH  024%=      5-min Rain = 0
KCL1 182110Z 18014G20KT 38/14 A2989 RMK A01 T03810138  RH  024%=      5-min Rain = 0
KCL1 182111Z 20013KT 38/14 A2989 RMK A01 T03820141  RH  024%=      5-min Rain = 0
KCL1 182112Z 20012G17KT 38/14 A2989 RMK A01 T03820141  RH  024%=      5-min Rain = 0
KCL1 182113Z 19013KT 38/14 A2989 RMK A01 T03800140  RH  024%=      5-min Rain = 0
KCL1 182114Z 20013KT 38/14 A2989 RMK A01 T03790139  RH  024%=      5-min Rain = 0
KCL1 182115Z 18015G20KT 38/14 A2989 RMK A01 T03770139  RH  024%=      5-min Rain = 0
KCL1 182116Z 20011KT 38/14 A2989 RMK A01 T03790141  RH  024%=      5-min Rain = 0
KCL1 182117Z 19010KT 38/14 A2989 RMK A01 T03810141  RH  024%=      5-min Rain = 0
KCL1 182118Z 19011KT 38/14 A2989 RMK A01 T03820142  RH  024%=      5-min Rain = 0
KCL1 182119Z 19013KT 38/14 A2989 RMK A01 T03840143  RH  024%=      5-min Rain = 0
KCL1 182120Z 19012KT 39/14 A2989 RMK A01 T03860144  RH  024%=      5-min Rain = 0
KCL1 182121Z 20010KT 39/14 A2988 RMK A01 T03860144  RH  024%=      5-min Rain = 0
KCL1 182122Z 19011G16KT 38/14 A2988 RMK A01 T03840144  RH  024%=      5-min Rain = 0
KCL1 182123Z 19010G15KT 38/14 A2988 RMK A01 T03840143  RH  024%=      5-min Rain = 0
KCL1 182124Z 19012G17KT 39/14 A2988 RMK A01 T03860143  RH  024%=      5-min Rain = 0
KCL1 182125Z 18010G15KT 39/14 A2988 RMK A01 T03870143  RH  024%=      5-min Rain = 0
KCL1 182126Z 19010KT 39/14 A2988 RMK A01 T03890143  RH  023%=      5-min Rain = 0
KCL1 182127Z 17012KT 39/14 A2988 RMK A01 T03900144  RH  023%=      5-min Rain = 0
KCL1 182128Z 18011KT 39/14 A2988 RMK A01 T03910142  RH  023%=      5-min Rain = 0
KCL1 182129Z 16012G17KT 39/14 A2988 RMK A01 T03880140  RH  023%=      5-min Rain = 0
KCL1 182130Z 16010KT 39/14 A2988 RMK A01 T03870141  RH  023%=      5-min Rain = 0
KCL1 182131Z 19019G24KT 39/14 A2988 RMK A01 T03860139  RH  023%=      5-min Rain = 0
KCL1 182132Z 20015G22KT 39/14 A2988 RMK A01 T03850137  RH  023%=      5-min Rain = 0
KCL1 182133Z 19015KT 38/14 A2988 RMK A01 T03830136  RH  023%=      5-min Rain = 0
KCL1 182134Z 19012KT 38/14 A2988 RMK A01 T03820136  RH  023%=      5-min Rain = 0
KCL1 182135Z 19011KT 38/14 A2988 RMK A01 T03810136  RH  023%=      5-min Rain = 0
KCL1 182136Z 21011G17KT 38/14 A2988 RMK A01 T03820137  RH  023%=      5-min Rain = 0
KCL1 182137Z 21015G20KT 38/14 A2988 RMK A01 T03820137  RH  023%=      5-min Rain = 0
KCL1 182138Z 19013G18KT 38/14 A2988 RMK A01 T03820137  RH  023%=      5-min Rain = 0
KCL1 182139Z 20012KT 38/14 A2988 RMK A01 T03810136  RH  023%=      5-min Rain = 0
KCL1 182140Z 21012KT 38/14 A2988 RMK A01 T03790137  RH  024%=      5-min Rain = 0
KCL1 182141Z 22013KT 38/14 A2988 RMK A01 T03790136  RH  024%=      5-min Rain = 0
KCL1 182142Z 23012G18KT 38/14 A2988 RMK A01 T03800137  RH  024%=      5-min Rain = 0
KCL1 182143Z 20014G20KT 38/14 A2988 RMK A01 T03810137  RH  023%=      5-min Rain = 0
KCL1 182144Z 20017KT 38/14 A2988 RMK A01 T03810138  RH  024%=      5-min Rain = 0
KCL1 182145Z 20015KT 38/14 A2988 RMK A01 T03810137  RH  024%=      5-min Rain = 0
KCL1 182146Z 19013KT 38/14 A2988 RMK A01 T03790137  RH  024%=      5-min Rain = 0
KCL1 182147Z 19011G16KT 38/14 A2988 RMK A01 T03770136  RH  024%=      5-min Rain = 0
KCL1 182148Z 21010G18KT 38/14 A2988 RMK A01 T03760136  RH  024%=      5-min Rain = 0
KCL1 182149Z 20010G15KT 38/14 A2988 RMK A01 T03770136  RH  024%=      5-min Rain = 0
KCL1 182150Z 19012G18KT 38/14 A2988 RMK A01 T03780136  RH  024%=      5-min Rain = 0
KCL1 182151Z 17011G16KT 38/14 A2988 RMK A01 T03790140  RH  024%=      5-min Rain = 0
KCL1 182152Z 17016G22KT 38/14 A2988 RMK A01 T03820142  RH  024%=      5-min Rain = 0
KCL1 182153Z 16017KT 38/14 A2987 RMK A01 T03840140  RH  024%=      5-min Rain = 0
KCL1 182154Z 17013G18KT 38/14 A2987 RMK A01 T03830139  RH  024%=      5-min Rain = 0
KCL1 182155Z 19010G18KT 38/14 A2987 RMK A01 T03820140  RH  024%=      5-min Rain = 0
KCL1 182156Z 19015G21KT 39/14 A2987 RMK A01 T03870137  RH  023%=      5-min Rain = 0
KCL1 182157Z 20013KT 39/13 A2988 RMK A01 T03850133  RH  022%=      5-min Rain = 0
KCL1 182158Z 21010G15KT 38/14 A2987 RMK A01 T03840135  RH  023%=      5-min Rain = 0
KCL1 182159Z 22013KT 38/14 A2987 RMK A01 T03840135  RH  023%=      5-min Rain = 0
KCL1 182200Z 20011KT 38/14 A2987 RMK A01 T03810135  RH  023%=      5-min Rain = 0
KCL1 182201Z 18011KT 38/14 A2987 RMK A01 T03790137  RH  024%=      5-min Rain = 0
KCL1 182202Z 19013G18KT 38/14 A2987 RMK A01 T03810138  RH  024%=      5-min Rain = 0
KCL1 182203Z 17015G20KT 38/14 A2987 RMK A01 T03830138  RH  023%=      5-min Rain = 0
KCL1 182204Z 17015KT 38/14 A2987 RMK A01 T03830139  RH  024%=      5-min Rain = 0
KCL1 182205Z 18015KT 38/14 A2987 RMK A01 T03820138  RH  024%=      5-min Rain = 0
KCL1 182206Z 16013KT 38/14 A2987 RMK A01 T03820139  RH  024%=      5-min Rain = 0
KCL1 182207Z 16013KT 38/14 A2987 RMK A01 T03830140  RH  024%=      5-min Rain = 0
KCL1 182208Z 17014KT 38/14 A2987 RMK A01 T03820140  RH  024%=      5-min Rain = 0
KCL1 182209Z 17011KT 38/14 A2987 RMK A01 T03810140  RH  024%=      5-min Rain = 0
KCL1 182210Z 17011KT 38/14 A2987 RMK A01 T03810141  RH  024%=      5-min Rain = 0
KCL1 182211Z 19011KT 38/14 A2987 RMK A01 T03840143  RH  024%=      5-min Rain = 0
KCL1 182212Z 20010G15KT 39/14 A2987 RMK A01 T03860139  RH  023%=      5-min Rain = 0
KCL1 182213Z 21017G23KT 39/14 A2987 RMK A01 T03860137  RH  023%=      5-min Rain = 0
KCL1 182214Z 21008KT 38/14 A2987 RMK A01 T03840138  RH  023%=      5-min Rain = 0
KCL1 182215Z 20014KT 39/14 A2987 RMK A01 T03850137  RH  023%=      5-min Rain = 0
KCL1 182216Z 20013KT 38/14 A2987 RMK A01 T03830135  RH  023%=      5-min Rain = 0
KCL1 182217Z 19010KT 38/14 A2987 RMK A01 T03820136  RH  023%=      5-min Rain = 0
KCL1 182218Z 21015G20KT 38/14 A2987 RMK A01 T03830136  RH  023%=      5-min Rain = 0
KCL1 182219Z 20013G18KT 38/14 A2987 RMK A01 T03820137  RH  023%=      5-min Rain = 0
KCL1 182220Z 18013G18KT 38/14 A2987 RMK A01 T03800138  RH  024%=      5-min Rain = 0
KCL1 182221Z 17016G23KT 38/14 A2987 RMK A01 T03820138  RH  024%=      5-min Rain = 0
KCL1 182222Z 20017KT 38/14 A2987 RMK A01 T03820138  RH  024%=      5-min Rain = 0
KCL1 182223Z 20015KT 38/14 A2987 RMK A01 T03810136  RH  023%=      5-min Rain = 0
KCL1 182224Z 20009KT 38/14 A2987 RMK A01 T03800135  RH  023%=      5-min Rain = 0
KCL1 182225Z 19009KT 38/14 A2987 RMK A01 T03790138  RH  024%=      5-min Rain = 0
KCL1 182226Z 20011KT 38/14 A2987 RMK A01 T03820136  RH  023%=      5-min Rain = 0
KCL1 182227Z 21012G17KT 38/14 A2986 RMK A01 T03820137  RH  023%=      5-min Rain = 0
KCL1 182228Z 19013G18KT 38/14 A2987 RMK A01 T03820137  RH  023%=      5-min Rain = 0
KCL1 182229Z 18012KT 38/14 A2986 RMK A01 T03830138  RH  023%=      5-min Rain = 0
KCL1 182230Z 21012KT 38/14 A2986 RMK A01 T03840138  RH  023%=      5-min Rain = 0
KCL1 182231Z 21007KT 38/14 A2986 RMK A01 T03840138  RH  023%=      5-min Rain = 0
KCL1 182232Z 20012KT 38/14 A2986 RMK A01 T03840138  RH  023%=      5-min Rain = 0
KCL1 182233Z 20014KT 38/14 A2986 RMK A01 T03840138  RH  023%=      5-min Rain = 0
KCL1 182234Z 17010KT 38/14 A2986 RMK A01 T03840139  RH  023%=      5-min Rain = 0
KCL1 182235Z 19011G17KT 39/14 A2986 RMK A01 T03870139  RH  023%=      5-min Rain = 0
KCL1 182236Z 18012G20KT 39/14 A2986 RMK A01 T03870137  RH  023%=      5-min Rain = 0
KCL1 182237Z 16014G19KT 39/14 A2986 RMK A01 T03860138  RH  023%=      5-min Rain = 0
KCL1 182238Z 16016KT 39/14 A2986 RMK A01 T03850138  RH  023%=      5-min Rain = 0
KCL1 182239Z 18013KT 38/14 A2986 RMK A01 T03840138  RH  023%=      5-min Rain = 0
KCL1 182240Z 17013G20KT 38/14 A2986 RMK A01 T03840137  RH  023%=      5-min Rain = 0
KCL1 182241Z 18012G17KT 38/14 A2986 RMK A01 T03830138  RH  023%=      5-min Rain = 0
KCL1 182242Z 18015KT 38/14 A2986 RMK A01 T03830138  RH  023%=      5-min Rain = 0
KCL1 182243Z 19015KT 38/14 A2986 RMK A01 T03830138  RH  023%=      5-min Rain = 0
KCL1 182244Z 19015KT 38/14 A2986 RMK A01 T03830137  RH  023%=      5-min Rain = 0
KCL1 182245Z 19015G23KT 38/14 A2986 RMK A01 T03820137  RH  023%=      5-min Rain = 0
KCL1 182246Z 20014G19KT 38/14 A2986 RMK A01 T03820137  RH  023%=      5-min Rain = 0
KCL1 182247Z 20016G21KT 38/14 A2986 RMK A01 T03820137  RH  023%=      5-min Rain = 0
KCL1 182248Z 19017G22KT 38/14 A2986 RMK A01 T03800136  RH  023%=      5-min Rain = 0
KCL1 182249Z 19013G20KT 38/14 A2986 RMK A01 T03790135  RH  023%=      5-min Rain = 0
KCL1 182250Z 21014G20KT 38/14 A2985 RMK A01 T03780135  RH  024%=      5-min Rain = 0
KCL1 182251Z 22015KT 38/14 A2986 RMK A01 T03780136  RH  024%=      5-min Rain = 0
KCL1 182252Z 22011G17KT 38/14 A2986 RMK A01 T03790136  RH  023%=      5-min Rain = 0
KCL1 182253Z 21016KT 38/14 A2985 RMK A01 T03800135  RH  023%=      5-min Rain = 0
KCL1 182254Z 20012G18KT 38/14 A2986 RMK A01 T03800135  RH  023%=      5-min Rain = 0
KCL1 182255Z 19013KT 38/13 A2986 RMK A01 T03790133  RH  023%=      5-min Rain = 0
KCL1 182256Z 18012KT 38/13 A2986 RMK A01 T03790133  RH  023%=      5-min Rain = 0
KCL1 182257Z 17013KT 38/14 A2986 RMK A01 T03800135  RH  023%=      5-min Rain = 0
KCL1 182258Z 17015KT 38/14 A2986 RMK A01 T03810137  RH  023%=      5-min Rain = 0
KCL1 182259Z 17014KT 38/14 A2985 RMK A01 T03810136  RH  023%=      5-min Rain = 0
KCL1 182300Z 18014KT 38/14 A2985 RMK A01 T03810136  RH  023%=      5-min Rain = 0
KCL1 182301Z 18014KT 38/14 A2985 RMK A01 T03800136  RH  023%=      5-min Rain = 0
KCL1 182302Z 18011G16KT 38/14 A2986 RMK A01 T03810137  RH  024%=      5-min Rain = 0
KCL1 182303Z 19010G15KT 38/14 A2986 RMK A01 T03830138  RH  023%=      5-min Rain = 0
KCL1 182304Z 18010KT 39/14 A2985 RMK A01 T03850138  RH  023%=      5-min Rain = 0
KCL1 182305Z 18011KT 39/14 A2985 RMK A01 T03860138  RH  023%=      5-min Rain = 0
KCL1 182306Z 17012KT 39/14 A2985 RMK A01 T03860139  RH  023%=      5-min Rain = 0
KCL1 182307Z 18013G22KT 39/14 A2985 RMK A01 T03850138  RH  023%=      5-min Rain = 0
KCL1 182308Z 17014G22KT 38/14 A2985 RMK A01 T03830137  RH  023%=      5-min Rain = 0
KCL1 182309Z 16016KT 38/14 A2985 RMK A01 T03800136  RH  023%=      5-min Rain = 0
KCL1 182310Z 17017KT 38/14 A2985 RMK A01 T03790136  RH  024%=      5-min Rain = 0
KCL1 182311Z 18017KT 38/14 A2985 RMK A01 T03790137  RH  024%=      5-min Rain = 0
KCL1 182312Z 17015G20KT 38/14 A2985 RMK A01 T03800137  RH  024%=      5-min Rain = 0
KCL1 182313Z 17014KT 38/14 A2985 RMK A01 T03800138  RH  024%=      5-min Rain = 0
KCL1 182314Z 18013G18KT 38/14 A2985 RMK A01 T03810138  RH  024%=      5-min Rain = 0
KCL1 182315Z 18013KT 38/14 A2985 RMK A01 T03810137  RH  024%=      5-min Rain = 0
KCL1 182316Z 17012G17KT 38/14 A2985 RMK A01 T03800138  RH  024%=      5-min Rain = 0
KCL1 182317Z 19016KT 38/14 A2985 RMK A01 T03810138  RH  024%=      5-min Rain = 0
KCL1 182318Z 20016KT 38/14 A2985 RMK A01 T03810136  RH  023%=      5-min Rain = 0
KCL1 182319Z 20012KT 38/14 A2985 RMK A01 T03800137  RH  024%=      5-min Rain = 0
KCL1 182320Z 22012G17KT 38/14 A2985 RMK A01 T03800137  RH  024%=      5-min Rain = 0
KCL1 182321Z 19014KT 38/14 A2985 RMK A01 T03800137  RH  024%=      5-min Rain = 0
KCL1 182322Z 18012KT 38/14 A2985 RMK A01 T03800137  RH  024%=      5-min Rain = 0
KCL1 182323Z 19012KT 38/14 A2985 RMK A01 T03800138  RH  024%=      5-min Rain = 0
KCL1 182324Z 18011KT 38/14 A2985 RMK A01 T03790138  RH  024%=      5-min Rain = 0
KCL1 182325Z 18010G18KT 38/14 A2985 RMK A01 T03790139  RH  024%=      5-min Rain = 0
KCL1 182326Z 17017G22KT 38/14 A2985 RMK A01 T03800139  RH  024%=      5-min Rain = 0
KCL1 182327Z 17012G17KT 38/14 A2985 RMK A01 T03790138  RH  024%=      5-min Rain = 0
KCL1 182328Z 17009KT 38/14 A2985 RMK A01 T03790138  RH  024%=      5-min Rain = 0
KCL1 182329Z 15018G23KT 38/14 A2985 RMK A01 T03790140  RH  024%=      5-min Rain = 0
KCL1 182330Z 15015KT 38/14 A2985 RMK A01 T03790138  RH  024%=      5-min Rain = 0
KCL1 182331Z 17018G23KT 38/14 A2985 RMK A01 T03780139  RH  024%=      5-min Rain = 0
KCL1 182332Z 17014G19KT 38/14 A2985 RMK A01 T03770138  RH  024%=      5-min Rain = 0
KCL1 182333Z 17017G23KT 38/14 A2985 RMK A01 T03770137  RH  024%=      5-min Rain = 0
KCL1 182334Z 16015G20KT 38/14 A2985 RMK A01 T03760137  RH  024%=      5-min Rain = 0
KCL1 182335Z 17013KT 38/14 A2985 RMK A01 T03750139  RH  024%=      5-min Rain = 0
KCL1 182336Z 18013KT 38/14 A2985 RMK A01 T03750138  RH  024%=      5-min Rain = 0
KCL1 182337Z 17012KT 38/14 A2985 RMK A01 T03760138  RH  024%=      5-min Rain = 0
KCL1 182338Z 17009KT 38/14 A2985 RMK A01 T03770139  RH  024%=      5-min Rain = 0
KCL1 182339Z 21010G15KT 38/14 A2985 RMK A01 T03770139  RH  024%=      5-min Rain = 0
KCL1 182340Z 20011KT 38/14 A2985 RMK A01 T03780139  RH  024%=      5-min Rain = 0
KCL1 182341Z 23013KT 38/14 A2984 RMK A01 T03790138  RH  024%=      5-min Rain = 0
KCL1 182342Z 22012G17KT 38/14 A2984 RMK A01 T03800138  RH  024%=      5-min Rain = 0
KCL1 182343Z 22013KT 38/14 A2985 RMK A01 T03790137  RH  024%=      5-min Rain = 0
KCL1 182344Z 20011G16KT 38/14 A2985 RMK A01 T03780137  RH  024%=      5-min Rain = 0
KCL1 182345Z 20013KT 38/14 A2985 RMK A01 T03780137  RH  024%=      5-min Rain = 0
KCL1 182346Z 21011G17KT 38/14 A2985 RMK A01 T03770136  RH  024%=      5-min Rain = 0
KCL1 182347Z 20016G23KT 38/14 A2985 RMK A01 T03760136  RH  024%=      5-min Rain = 0
KCL1 182348Z 19016G23KT 38/14 A2985 RMK A01 T03760137  RH  024%=      5-min Rain = 0
KCL1 182349Z 19017KT 37/14 A2985 RMK A01 T03740135  RH  024%=      5-min Rain = 0
KCL1 182350Z 18016KT 37/14 A2985 RMK A01 T03730136  RH  024%=      5-min Rain = 0
KCL1 182351Z 17013KT 37/14 A2985 RMK A01 T03730136  RH  024%=      5-min Rain = 0
KCL1 182352Z 17014KT 37/14 A2985 RMK A01 T03730137  RH  024%=      5-min Rain = 0
KCL1 182353Z 17013KT 37/14 A2985 RMK A01 T03730136  RH  024%=      5-min Rain = 0
KCL1 182354Z 17013KT 37/14 A2985 RMK A01 T03730136  RH  024%=      5-min Rain = 0
KCL1 182355Z 18013KT 37/14 A2985 RMK A01 T03730136  RH  024%=      5-min Rain = 0
KCL1 182356Z 19013KT 37/14 A2985 RMK A01 T03730136  RH  024%=      5-min Rain = 0
KCL1 182357Z 19013G18KT 37/14 A2985 RMK A01 T03730136  RH  024%=      5-min Rain = 0
KCL1 182358Z 18016KT 37/14 A2984 RMK A01 T03740135  RH  024%=      5-min Rain = 0
KCL1 182359Z 16014KT 37/14 A2985 RMK A01 T03740136  RH  024%=      5-min Rain = 0
KCL1 190000Z 18014KT 37/14 A2985 RMK A01 T03730135  RH  024%=      5-min Rain = 0
KCL1 190001Z 19011G16KT 37/14 A2985 RMK A01 T03720136  RH  024%=      5-min Rain = 0
KCL1 190002Z 16017KT 37/14 A2985 RMK A01 T03720136  RH  024%=      5-min Rain = 0
KCL1 190003Z 17011G18KT 37/14 A2985 RMK A01 T03720136  RH  025%=      5-min Rain = 0
KCL1 190004Z 18010G15KT 37/14 A2985 RMK A01 T03720137  RH  025%=      5-min Rain = 0
KCL1 190005Z 17013KT 37/14 A2985 RMK A01 T03730137  RH  025%=      5-min Rain = 0
KCL1 190006Z 17014KT 37/14 A2985 RMK A01 T03730136  RH  024%=      5-min Rain = 0
KCL1 190007Z 16014KT 37/14 A2985 RMK A01 T03720136  RH  025%=      5-min Rain = 0
KCL1 190008Z 17011KT 37/14 A2984 RMK A01 T03710136  RH  025%=      5-min Rain = 0
KCL1 190009Z 16016G21KT 37/14 A2984 RMK A01 T03710137  RH  025%=      5-min Rain = 0
KCL1 190010Z 17014KT 37/14 A2985 RMK A01 T03710137  RH  025%=      5-min Rain = 0
KCL1 190011Z 17013G18KT 37/14 A2985 RMK A01 T03710138  RH  025%=      5-min Rain = 0
KCL1 190012Z 17013KT 37/14 A2985 RMK A01 T03710137  RH  025%=      5-min Rain = 0
KCL1 190013Z 18012KT 37/14 A2985 RMK A01 T03700137  RH  025%=      5-min Rain = 0
KCL1 190014Z 17016KT 37/14 A2985 RMK A01 T03700137  RH  025%=      5-min Rain = 0
KCL1 190015Z 19014G19KT 37/14 A2984 RMK A01 T03710136  RH  025%=      5-min Rain = 0
KCL1 190016Z 18014G19KT 37/14 A2985 RMK A01 T03710136  RH  025%=      5-min Rain = 0
KCL1 190017Z 20016KT 37/14 A2985 RMK A01 T03710136  RH  025%=      5-min Rain = 0
KCL1 190018Z 18011KT 37/14 A2985 RMK A01 T03710135  RH  024%=      5-min Rain = 0
KCL1 190019Z 18013KT 37/14 A2985 RMK A01 T03710135  RH  024%=      5-min Rain = 0
KCL1 190020Z 17013KT 37/14 A2985 RMK A01 T03710136  RH  025%=      5-min Rain = 0
KCL1 190021Z 18012KT 37/14 A2985 RMK A01 T03700135  RH  025%=      5-min Rain = 0
KCL1 190022Z 16015KT 37/14 A2985 RMK A01 T03700135  RH  025%=      5-min Rain = 0
KCL1 190023Z 17015KT 37/13 A2985 RMK A01 T03690134  RH  025%=      5-min Rain = 0
KCL1 190024Z 17014G19KT 37/13 A2985 RMK A01 T03680134  RH  025%=      5-min Rain = 0
KCL1 190025Z 16018KT 37/13 A2985 RMK A01 T03680134  RH  025%=      5-min Rain = 0
KCL1 190026Z 17014G19KT 37/13 A2985 RMK A01 T03670134  RH  025%=      5-min Rain = 0
KCL1 190027Z 18010G15KT 37/14 A2985 RMK A01 T03670135  RH  025%=      5-min Rain = 0
KCL1 190028Z 18012G18KT 37/14 A2985 RMK A01 T03680136  RH  025%=      5-min Rain = 0
KCL1 190029Z 17016KT 37/14 A2985 RMK A01 T03680135  RH  025%=      5-min Rain = 0
KCL1 190030Z 17012KT 37/13 A2985 RMK A01 T03680134  RH  025%=      5-min Rain = 0
KCL1 190031Z 17007KT 37/14 A2985 RMK A01 T03680136  RH  025%=      5-min Rain = 0
KCL1 190032Z 17009KT 37/14 A2985 RMK A01 T03670136  RH  025%=      5-min Rain = 0
KCL1 190033Z 16012KT 37/14 A2985 RMK A01 T03670135  RH  025%=      5-min Rain = 0
KCL1 190034Z 17009KT 37/14 A2985 RMK A01 T03670136  RH  025%=      5-min Rain = 0
KCL1 190035Z 17010G18KT 37/14 A2985 RMK A01 T03670137  RH  025%=      5-min Rain = 0
KCL1 190036Z 17013G19KT 37/14 A2985 RMK A01 T03670136  RH  025%=      5-min Rain = 0
KCL1 190037Z 16010KT 37/14 A2985 RMK A01 T03660136  RH  025%=      5-min Rain = 0
KCL1 190038Z 16016KT 37/14 A2985 RMK A01 T03670137  RH  025%=      5-min Rain = 0
KCL1 190039Z 17015KT 37/14 A2985 RMK A01 T03660136  RH  025%=      5-min Rain = 0
KCL1 190040Z 18014KT 37/14 A2985 RMK A01 T03650136  RH  025%=      5-min Rain = 0
KCL1 190041Z 18015G21KT 37/14 A2985 RMK A01 T03650135  RH  025%=      5-min Rain = 0
KCL1 190042Z 17016KT 37/14 A2985 RMK A01 T03650136  RH  025%=      5-min Rain = 0
KCL1 190043Z 16016KT 37/14 A2985 RMK A01 T03650136  RH  025%=      5-min Rain = 0
KCL1 190044Z 18013KT 36/14 A2985 RMK A01 T03640135  RH  025%=      5-min Rain = 0
KCL1 190045Z 16013G18KT 36/14 A2985 RMK A01 T03640136  RH  026%=      5-min Rain = 0
KCL1 190046Z 16012KT 36/14 A2985 RMK A01 T03640136  RH  026%=      5-min Rain = 0
KCL1 190047Z 16009KT 36/14 A2985 RMK A01 T03640137  RH  026%=      5-min Rain = 0
KCL1 190048Z 17010G15KT 36/14 A2985 RMK A01 T03630138  RH  026%=      5-min Rain = 0
KCL1 190049Z 18012G17KT 36/14 A2985 RMK A01 T03630137  RH  026%=      5-min Rain = 0
KCL1 190050Z 18013KT 36/14 A2985 RMK A01 T03620136  RH  026%=      5-min Rain = 0
KCL1 190051Z 17011G16KT 36/14 A2985 RMK A01 T03620136  RH  026%=      5-min Rain = 0
KCL1 190052Z 17013KT 36/14 A2985 RMK A01 T03620136  RH  026%=      5-min Rain = 0
KCL1 190053Z 17016KT 36/14 A2985 RMK A01 T03620136  RH  026%=      5-min Rain = 0
KCL1 190054Z 17013KT 36/14 A2985 RMK A01 T03620136  RH  026%=      5-min Rain = 0
KCL1 190055Z 18011KT 36/14 A2985 RMK A01 T03620137  RH  026%=      5-min Rain = 0
KCL1 190056Z 18011G17KT 36/14 A2985 RMK A01 T03620137  RH  026%=      5-min Rain = 0
KCL1 190057Z 16013G19KT 36/14 A2985 RMK A01 T03620137  RH  026%=      5-min Rain = 0
KCL1 190058Z 17013KT 36/14 A2985 RMK A01 T03620137  RH  026%=      5-min Rain = 0
KCL1 190059Z 17013KT 36/14 A2985 RMK A01 T03620138  RH  026%=      5-min Rain = 0
KCL1 190100Z 17013KT 36/14 A2985 RMK A01 T03610138  RH  026%=      5-min Rain = 0
KCL1 190101Z 16013KT 36/14 A2985 RMK A01 T03600138  RH  027%=      5-min Rain = 0
KCL1 190102Z 16014G20KT 36/14 A2985 RMK A01 T03600138  RH  027%=      5-min Rain = 0
KCL1 190103Z 18012G17KT 36/14 A2985 RMK A01 T03590138  RH  027%=      5-min Rain = 0
KCL1 190104Z 17015KT 36/14 A2985 RMK A01 T03590138  RH  027%=      5-min Rain = 0
KCL1 190105Z 17016KT 36/14 A2985 RMK A01 T03590137  RH  027%=      5-min Rain = 0
KCL1 190106Z 17014G20KT 36/14 A2985 RMK A01 T03590137  RH  027%=      5-min Rain = 0
KCL1 190107Z 18012KT 36/14 A2985 RMK A01 T03580137  RH  027%=      5-min Rain = 0
KCL1 190108Z 17011G16KT 36/14 A2985 RMK A01 T03580138  RH  027%=      5-min Rain = 0
KCL1 190109Z 16013KT 36/14 A2985 RMK A01 T03580139  RH  027%=      5-min Rain = 0
KCL1 190110Z 17010KT 36/14 A2985 RMK A01 T03570139  RH  027%=      5-min Rain = 0
KCL1 190111Z 16015G22KT 36/14 A2985 RMK A01 T03570139  RH  027%=      5-min Rain = 0
KCL1 190112Z 17014KT 36/14 A2985 RMK A01 T03560139  RH  027%=      5-min Rain = 0
KCL1 190113Z 16013KT 36/14 A2985 RMK A01 T03550139  RH  027%=      5-min Rain = 0
KCL1 190114Z 17010G15KT 36/14 A2985 RMK A01 T03550139  RH  028%=      5-min Rain = 0
KCL1 190115Z 16011KT 35/14 A2985 RMK A01 T03540140  RH  028%=      5-min Rain = 0
KCL1 190116Z 16013KT 35/14 A2985 RMK A01 T03540140  RH  028%=      5-min Rain = 0
KCL1 190117Z 17012KT 35/14 A2985 RMK A01 T03540141  RH  028%=      5-min Rain = 0
KCL1 190118Z 17010KT 35/14 A2986 RMK A01 T03530141  RH  028%=      5-min Rain = 0
KCL1 190119Z 17010KT 35/14 A2986 RMK A01 T03530141  RH  028%=      5-min Rain = 0
KCL1 190120Z 17012KT 35/14 A2986 RMK A01 T03530141  RH  028%=      5-min Rain = 0
KCL1 190121Z 16011G16KT 35/14 A2986 RMK A01 T03530141  RH  028%=      5-min Rain = 0
KCL1 190122Z 18011KT 35/14 A2986 RMK A01 T03520141  RH  028%=      5-min Rain = 0
KCL1 190123Z 18013KT 35/14 A2986 RMK A01 T03510142  RH  028%=      5-min Rain = 0
KCL1 190124Z 18012G17KT 35/14 A2986 RMK A01 T03510142  RH  029%=      5-min Rain = 0
KCL1 190125Z 18010KT 35/14 A2986 RMK A01 T03510142  RH  029%=      5-min Rain = 0
KCL1 190126Z 18010KT 35/14 A2986 RMK A01 T03510143  RH  029%=      5-min Rain = 0
KCL1 190127Z 17010G15KT 35/14 A2986 RMK A01 T03510143  RH  029%=      5-min Rain = 0
KCL1 190128Z 17010G15KT 35/14 A2986 RMK A01 T03500144  RH  029%=      5-min Rain = 0
KCL1 190129Z 17012G21KT 35/14 A2986 RMK A01 T03490144  RH  029%=      5-min Rain = 0
KCL1 190130Z 16015G20KT 35/15 A2986 RMK A01 T03490145  RH  030%=      5-min Rain = 0
KCL1 190131Z 17014G20KT 35/15 A2986 RMK A01 T03480146  RH  030%=      5-min Rain = 0
KCL1 190132Z 17013KT 35/15 A2986 RMK A01 T03480146  RH  030%=      5-min Rain = 0
KCL1 190133Z 17012KT 35/15 A2986 RMK A01 T03470146  RH  030%=      5-min Rain = 0
KCL1 190134Z 15016G25KT 35/15 A2986 RMK A01 T03470147  RH  030%=      5-min Rain = 0
KCL1 190135Z 16013G20KT 35/15 A2986 RMK A01 T03460147  RH  030%=      5-min Rain = 0
KCL1 190136Z 16016KT 35/15 A2986 RMK A01 T03450147  RH  030%=      5-min Rain = 0
KCL1 190137Z 17013KT 35/15 A2986 RMK A01 T03450147  RH  031%=      5-min Rain = 0
KCL1 190138Z 17012KT 35/15 A2986 RMK A01 T03450148  RH  031%=      5-min Rain = 0
KCL1 190139Z 16011G16KT 34/15 A2986 RMK A01 T03440148  RH  031%=      5-min Rain = 0
KCL1 190140Z 16015KT 34/15 A2986 RMK A01 T03440148  RH  031%=      5-min Rain = 0
KCL1 190141Z 16014G19KT 34/15 A2986 RMK A01 T03430148  RH  031%=      5-min Rain = 0
KCL1 190142Z 17015KT 34/15 A2986 RMK A01 T03430148  RH  031%=      5-min Rain = 0
KCL1 190143Z 18013KT 34/15 A2986 RMK A01 T03430148  RH  031%=      5-min Rain = 0
KCL1 190144Z 18009G14KT 34/15 A2986 RMK A01 T03430148  RH  031%=      5-min Rain = 0
KCL1 190145Z 17016G21KT 34/15 A2986 RMK A01 T03430148  RH  031%=      5-min Rain = 0
KCL1 190146Z 16012G18KT 34/15 A2986 RMK A01 T03430148  RH  031%=      5-min Rain = 0
KCL1 190147Z 18014KT 34/15 A2986 RMK A01 T03420148  RH  031%=      5-min Rain = 0
KCL1 190148Z 17012KT 34/15 A2986 RMK A01 T03430149  RH  031%=      5-min Rain = 0
KCL1 190149Z 18012KT 34/15 A2986 RMK A01 T03420148  RH  031%=      5-min Rain = 0
KCL1 190150Z 17010KT 34/15 A2987 RMK A01 T03410148  RH  031%=      5-min Rain = 0
KCL1 190151Z 16012KT 34/15 A2987 RMK A01 T03400148  RH  032%=      5-min Rain = 0
KCL1 190152Z 17011KT 34/15 A2987 RMK A01 T03400149  RH  032%=      5-min Rain = 0
KCL1 190153Z 17013KT 34/15 A2987 RMK A01 T03390148  RH  032%=      5-min Rain = 0
KCL1 190154Z 17014G19KT 34/15 A2987 RMK A01 T03390148  RH  032%=      5-min Rain = 0
KCL1 190155Z 17012G19KT 34/15 A2987 RMK A01 T03400149  RH  032%=      5-min Rain = 0
KCL1 190156Z 17012KT 34/15 A2987 RMK A01 T03390149  RH  032%=      5-min Rain = 0
KCL1 190157Z 17009KT 34/15 A2987 RMK A01 T03390149  RH  032%=      5-min Rain = 0
KCL1 190158Z 17010KT 34/15 A2987 RMK A01 T03380148  RH  032%=      5-min Rain = 0
KCL1 190159Z 17012G17KT 34/15 A2987 RMK A01 T03380149  RH  032%=      5-min Rain = 0
KCL1 190200Z 18013G20KT 34/15 A2987 RMK A01 T03380149  RH  032%=      5-min Rain = 0
KCL1 190201Z 16014G19KT 34/15 A2987 RMK A01 T03380149  RH  032%=      5-min Rain = 0
KCL1 190202Z 18010KT 34/15 A2987 RMK A01 T03380149  RH  032%=      5-min Rain = 0
KCL1 190203Z 18010KT 34/15 A2987 RMK A01 T03370149  RH  032%=      5-min Rain = 0
KCL1 190204Z 17010KT 34/15 A2987 RMK A01 T03370149  RH  032%=      5-min Rain = 0
KCL1 190205Z 17009KT 34/15 A2987 RMK A01 T03360149  RH  032%=      5-min Rain = 0
KCL1 190206Z 18015KT 34/15 A2987 RMK A01 T03360149  RH  033%=      5-min Rain = 0
KCL1 190207Z 17016KT 34/15 A2987 RMK A01 T03360149  RH  033%=      5-min Rain = 0
KCL1 190208Z 17016KT 34/15 A2987 RMK A01 T03360149  RH  032%=      5-min Rain = 0
KCL1 190209Z 18013G19KT 34/15 A2987 RMK A01 T03360148  RH  032%=      5-min Rain = 0
KCL1 190210Z 17011KT 34/15 A2987 RMK A01 T03360149  RH  032%=      5-min Rain = 0
KCL1 190211Z 18012KT 34/15 A2987 RMK A01 T03350149  RH  033%=      5-min Rain = 0
KCL1 190212Z 18012KT 34/15 A2987 RMK A01 T03360149  RH  033%=      5-min Rain = 0
KCL1 190213Z 17013KT 34/15 A2987 RMK A01 T03350149  RH  033%=      5-min Rain = 0
KCL1 190214Z 18014KT 34/15 A2987 RMK A01 T03350149  RH  033%=      5-min Rain = 0
KCL1 190215Z 18013KT 34/15 A2987 RMK A01 T03350149  RH  033%=      5-min Rain = 0
KCL1 190216Z 18014KT 34/15 A2987 RMK A01 T03350149  RH  033%=      5-min Rain = 0
KCL1 190217Z 17014KT 34/15 A2987 RMK A01 T03350149  RH  033%=      5-min Rain = 0
KCL1 190218Z 17014KT 34/15 A2987 RMK A01 T03350149  RH  033%=      5-min Rain = 0
KCL1 190219Z 16012KT 33/15 A2987 RMK A01 T03340149  RH  033%=      5-min Rain = 0
KCL1 190220Z 18009KT 33/15 A2987 RMK A01 T03340149  RH  033%=      5-min Rain = 0
KCL1 190221Z 18013KT 33/15 A2987 RMK A01 T03330149  RH  033%=      5-min Rain = 0
KCL1 190222Z 18012KT 33/15 A2987 RMK A01 T03330149  RH  033%=      5-min Rain = 0
KCL1 190223Z 17009G14KT 33/15 A2988 RMK A01 T03330149  RH  033%=      5-min Rain = 0
KCL1 190224Z 18015G20KT 33/15 A2987 RMK A01 T03320149  RH  033%=      5-min Rain = 0
KCL1 190225Z 17014G19KT 33/15 A2987 RMK A01 T03320149  RH  033%=      5-min Rain = 0
KCL1 190226Z 18015KT 33/15 A2987 RMK A01 T03320149  RH  033%=      5-min Rain = 0
KCL1 190227Z 16013KT 33/15 A2988 RMK A01 T03330149  RH  033%=      5-min Rain = 0
KCL1 190228Z 17014KT 33/15 A2988 RMK A01 T03320149  RH  033%=      5-min Rain = 0
KCL1 190229Z 18011KT 33/15 A2988 RMK A01 T03320149  RH  033%=      5-min Rain = 0
KCL1 190230Z 17012KT 33/15 A2988 RMK A01 T03320149  RH  033%=      5-min Rain = 0
KCL1 190231Z 17013KT 33/15 A2988 RMK A01 T03310149  RH  033%=      5-min Rain = 0
KCL1 190232Z 17012KT 33/15 A2988 RMK A01 T03310149  RH  033%=      5-min Rain = 0
KCL1 190233Z 17013G19KT 33/15 A2988 RMK A01 T03310150  RH  034%=      5-min Rain = 0
KCL1 190234Z 17014G19KT 33/15 A2988 RMK A01 T03310149  RH  034%=      5-min Rain = 0
KCL1 190235Z 19012KT 33/15 A2988 RMK A01 T03310149  RH  034%=      5-min Rain = 0
KCL1 190236Z 17011KT 33/15 A2988 RMK A01 T03310149  RH  034%=      5-min Rain = 0
KCL1 190237Z 18011KT 33/15 A2988 RMK A01 T03310150  RH  034%=      5-min Rain = 0
KCL1 190238Z 17013KT 33/15 A2988 RMK A01 T03300150  RH  034%=      5-min Rain = 0
KCL1 190239Z 17012KT 33/15 A2988 RMK A01 T03300150  RH  034%=      5-min Rain = 0
KCL1 190240Z 16009G15KT 33/15 A2988 RMK A01 T03300150  RH  034%=      5-min Rain = 0
KCL1 190241Z 17008KT 33/15 A2988 RMK A01 T03290150  RH  034%=      5-min Rain = 0
KCL1 190242Z 17007KT 33/15 A2988 RMK A01 T03280150  RH  034%=      5-min Rain = 0
KCL1 190243Z 17008KT 33/15 A2988 RMK A01 T03270150  RH  034%=      5-min Rain = 0
KCL1 190244Z 18009KT 33/15 A2988 RMK A01 T03270150  RH  034%=      5-min Rain = 0
KCL1 190245Z 18008KT 33/15 A2988 RMK A01 T03260150  RH  035%=      5-min Rain = 0
KCL1 190246Z 18008KT 33/15 A2988 RMK A01 T03260150  RH  035%=      5-min Rain = 0
KCL1 190247Z 18010KT 33/15 A2988 RMK A01 T03260150  RH  035%=      5-min Rain = 0
KCL1 190248Z 17010KT 33/15 A2988 RMK A01 T03260150  RH  035%=      5-min Rain = 0
KCL1 190249Z 16007KT 33/15 A2988 RMK A01 T03260150  RH  035%=      5-min Rain = 0
KCL1 190250Z 16010KT 33/15 A2988 RMK A01 T03260150  RH  035%=      5-min Rain = 0
KCL1 190251Z 17013KT 33/15 A2988 RMK A01 T03260149  RH  035%=      5-min Rain = 0
KCL1 190252Z 18012KT 33/15 A2988 RMK A01 T03260149  RH  035%=      5-min Rain = 0
KCL1 190253Z 18011KT 33/15 A2988 RMK A01 T03260149  RH  034%=      5-min Rain = 0
KCL1 190254Z 16009KT 33/15 A2989 RMK A01 T03260149  RH  034%=      5-min Rain = 0
KCL1 190255Z 17009G14KT 33/15 A2989 RMK A01 T03260149  RH  034%=      5-min Rain = 0
KCL1 190256Z 18010KT 33/15 A2989 RMK A01 T03250149  RH  035%=      5-min Rain = 0
KCL1 190257Z 18014G19KT 33/15 A2989 RMK A01 T03250149  RH  034%=      5-min Rain = 0
KCL1 190258Z 17012KT 33/15 A2989 RMK A01 T03260148  RH  034%=      5-min Rain = 0
KCL1 190259Z 17011KT 33/15 A2989 RMK A01 T03270149  RH  034%=      5-min Rain = 0
KCL1 190300Z 18009KT 33/15 A2989 RMK A01 T03270148  RH  034%=      5-min Rain = 0
KCL1 190301Z 17010KT 33/15 A2989 RMK A01 T03270149  RH  034%=      5-min Rain = 0
KCL1 190302Z 16008KT 33/15 A2989 RMK A01 T03260148  RH  034%=      5-min Rain = 0
KCL1 190303Z 17008KT 33/15 A2989 RMK A01 T03250149  RH  034%=      5-min Rain = 0
KCL1 190304Z 18009G14KT 32/15 A2989 RMK A01 T03240148  RH  035%=      5-min Rain = 0
KCL1 190305Z 18012KT 32/15 A2989 RMK A01 T03240148  RH  035%=      5-min Rain = 0
KCL1 190306Z 17011KT 32/15 A2989 RMK A01 T03240148  RH  035%=      5-min Rain = 0
KCL1 190307Z 17011KT 32/15 A2989 RMK A01 T03240148  RH  034%=      5-min Rain = 0
KCL1 190308Z 17010KT 33/15 A2989 RMK A01 T03250148  RH  034%=      5-min Rain = 0
KCL1 190309Z 18008KT 33/15 A2989 RMK A01 T03250148  RH  034%=      5-min Rain = 0
KCL1 190310Z 17009KT 32/15 A2989 RMK A01 T03240148  RH  034%=      5-min Rain = 0
KCL1 190311Z 17012KT 32/15 A2989 RMK A01 T03240148  RH  035%=      5-min Rain = 0
KCL1 190312Z 17010KT 32/15 A2989 RMK A01 T03230147  RH  035%=      5-min Rain = 0
KCL1 190313Z 17010KT 32/15 A2989 RMK A01 T03230147  RH  034%=      5-min Rain = 0
KCL1 190314Z 17010G16KT 32/15 A2989 RMK A01 T03230147  RH  035%=      5-min Rain = 0
KCL1 190315Z 17011KT 32/15 A2989 RMK A01 T03220147  RH  035%=      5-min Rain = 0
KCL1 190316Z 16013KT 32/15 A2989 RMK A01 T03230146  RH  034%=      5-min Rain = 0
KCL1 190317Z 16010KT 32/15 A2989 RMK A01 T03240146  RH  034%=      5-min Rain = 0
KCL1 190318Z 16011KT 32/15 A2989 RMK A01 T03240147  RH  034%=      5-min Rain = 0
KCL1 190319Z 16009KT 32/15 A2989 RMK A01 T03230147  RH  034%=      5-min Rain = 0
KCL1 190320Z 18010G16KT 32/15 A2989 RMK A01 T03220147  RH  035%=      5-min Rain = 0
KCL1 190321Z 18012KT 32/15 A2989 RMK A01 T03220146  RH  035%=      5-min Rain = 0
KCL1 190322Z 16012KT 32/15 A299 RMK A01 T03220146  RH  034%=      5-min Rain = 0
KCL1 190323Z 17008G13KT 32/15 A299 RMK A01 T03220146  RH  034%=      5-min Rain = 0
KCL1 190324Z 17010G17KT 32/15 A299 RMK A01 T03220146  RH  034%=      5-min Rain = 0
KCL1 190325Z 18010KT 32/15 A299 RMK A01 T03220146  RH  034%=      5-min Rain = 0
KCL1 190326Z 16010KT 32/15 A299 RMK A01 T03220145  RH  034%=      5-min Rain = 0
KCL1 190327Z 16008KT 32/15 A299 RMK A01 T03220145  RH  034%=      5-min Rain = 0
KCL1 190328Z 17010KT 32/15 A299 RMK A01 T03210145  RH  034%=      5-min Rain = 0
KCL1 190329Z 17010KT 32/15 A299 RMK A01 T03210145  RH  034%=      5-min Rain = 0
KCL1 190330Z 18009KT 32/15 A299 RMK A01 T03220145  RH  034%=      5-min Rain = 0
KCL1 190331Z 17007KT 32/15 A299 RMK A01 T03210145  RH  034%=      5-min Rain = 0
KCL1 190332Z 17009KT 32/15 A299 RMK A01 T03210145  RH  035%=      5-min Rain = 0
KCL1 190333Z 17010KT 32/15 A299 RMK A01 T03200145  RH  035%=      5-min Rain = 0
KCL1 190334Z 18010KT 32/14 A299 RMK A01 T03190144  RH  035%=      5-min Rain = 0
KCL1 190335Z 17011KT 32/14 A299 RMK A01 T03200144  RH  034%=      5-min Rain = 0
KCL1 190336Z 17013KT 32/14 A299 RMK A01 T03210144  RH  034%=      5-min Rain = 0
KCL1 190337Z 17009KT 32/14 A299 RMK A01 T03210144  RH  034%=      5-min Rain = 0
KCL1 190338Z 18009KT 32/14 A299 RMK A01 T03210144  RH  034%=      5-min Rain = 0
KCL1 190339Z 18010KT 32/14 A299 RMK A01 T03210144  RH  034%=      5-min Rain = 0
KCL1 190340Z 18013KT 32/14 A299 RMK A01 T03210144  RH  034%=      5-min Rain = 0
KCL1 190341Z 17010KT 32/14 A299 RMK A01 T03200144  RH  034%=      5-min Rain = 0
KCL1 190342Z 18011KT 32/14 A2991 RMK A01 T03200144  RH  034%=      5-min Rain = 0
KCL1 190343Z 18010KT 32/14 A2991 RMK A01 T03210144  RH  034%=      5-min Rain = 0
KCL1 190344Z 17011KT 32/14 A2991 RMK A01 T03200143  RH  034%=      5-min Rain = 0
KCL1 190345Z 17008KT 32/14 A2991 RMK A01 T03200143  RH  034%=      5-min Rain = 0
KCL1 190346Z 16010KT 32/14 A2991 RMK A01 T03200144  RH  034%=      5-min Rain = 0
KCL1 190347Z 16013KT 32/14 A2991 RMK A01 T03200143  RH  034%=      5-min Rain = 0
KCL1 190348Z 18009KT 32/14 A2991 RMK A01 T03200143  RH  034%=      5-min Rain = 0
KCL1 190349Z 17010KT 32/14 A2991 RMK A01 T03200144  RH  034%=      5-min Rain = 0
KCL1 190350Z 16010KT 32/14 A2991 RMK A01 T03200144  RH  034%=      5-min Rain = 0
KCL1 190351Z 16009KT 32/14 A2991 RMK A01 T03190143  RH  035%=      5-min Rain = 0
KCL1 190352Z 17008KT 32/14 A2991 RMK A01 T03180143  RH  035%=      5-min Rain = 0
KCL1 190353Z 17009KT 32/14 A2991 RMK A01 T03180144  RH  035%=      5-min Rain = 0
KCL1 190354Z 18012KT 32/14 A2991 RMK A01 T03180144  RH  035%=      5-min Rain = 0
KCL1 190355Z 18012KT 32/14 A2991 RMK A01 T03180143  RH  035%=      5-min Rain = 0
KCL1 190356Z 17011G17KT 32/14 A2991 RMK A01 T03190143  RH  034%=      5-min Rain = 0
KCL1 190357Z 17009KT 32/14 A2991 RMK A01 T03200143  RH  034%=      5-min Rain = 0
KCL1 190358Z 17009KT 32/14 A2991 RMK A01 T03200143  RH  034%=      5-min Rain = 0
KCL1 190359Z 17009KT 32/14 A2991 RMK A01 T03190143  RH  034%=      5-min Rain = 0
KCL1 190400Z 17010KT 32/14 A2991 RMK A01 T03190143  RH  034%=      5-min Rain = 0
KCL1 190401Z 17009G14KT 32/14 A2991 RMK A01 T03180143  RH  035%=      5-min Rain = 0
KCL1 190402Z 16013G18KT 32/14 A2991 RMK A01 T03180142  RH  035%=      5-min Rain = 0
KCL1 190403Z 17010KT 32/14 A2991 RMK A01 T03180142  RH  035%=      5-min Rain = 0
KCL1 190404Z 17012G17KT 32/14 A2991 RMK A01 T03170142  RH  034%=      5-min Rain = 0
KCL1 190405Z 17014G20KT 32/14 A2991 RMK A01 T03180141  RH  034%=      5-min Rain = 0
KCL1 190406Z 18012KT 32/14 A2991 RMK A01 T03190142  RH  034%=      5-min Rain = 0
KCL1 190407Z 18009KT 32/14 A2991 RMK A01 T03200142  RH  034%=      5-min Rain = 0
KCL1 190408Z 18010G15KT 32/14 A2991 RMK A01 T03190142  RH  034%=      5-min Rain = 0
KCL1 190409Z 17013KT 32/14 A2991 RMK A01 T03180142  RH  034%=      5-min Rain = 0
KCL1 190410Z 17010KT 32/14 A2991 RMK A01 T03180142  RH  034%=      5-min Rain = 0
KCL1 190411Z 18011KT 32/14 A2991 RMK A01 T03180142  RH  034%=      5-min Rain = 0
KCL1 190412Z 17011KT 32/14 A2991 RMK A01 T03180142  RH  034%=      5-min Rain = 0
KCL1 190413Z 18010G15KT 32/14 A2991 RMK A01 T03180141  RH  034%=      5-min Rain = 0
KCL1 190414Z 17010KT 32/14 A2991 RMK A01 T03180141  RH  034%=      5-min Rain = 0
KCL1 190415Z 17010KT 32/14 A2991 RMK A01 T03180141  RH  034%=      5-min Rain = 0
KCL1 190416Z 17011KT 32/14 A2991 RMK A01 T03170141  RH  034%=      5-min Rain = 0
KCL1 190417Z 17013KT 32/14 A2991 RMK A01 T03170141  RH  034%=      5-min Rain = 0
KCL1 190418Z 16012KT 32/14 A2991 RMK A01 T03180140  RH  034%=      5-min Rain = 0
KCL1 190419Z 16012KT 32/14 A2991 RMK A01 T03180140  RH  034%=      5-min Rain = 0
KCL1 190420Z 17010KT 32/14 A2991 RMK A01 T03180141  RH  034%=      5-min Rain = 0
KCL1 190421Z 17010KT 32/14 A2991 RMK A01 T03170141  RH  034%=      5-min Rain = 0
KCL1 190422Z 17009KT 32/14 A2991 RMK A01 T03160141  RH  034%=      5-min Rain = 0
KCL1 190423Z 18013KT 32/14 A2991 RMK A01 T03160141  RH  035%=      5-min Rain = 0
KCL1 190424Z 18012KT 32/14 A2991 RMK A01 T03160140  RH  034%=      5-min Rain = 0
KCL1 190425Z 17009KT 32/14 A2991 RMK A01 T03170141  RH  034%=      5-min Rain = 0
KCL1 190426Z 18013KT 32/14 A2991 RMK A01 T03170141  RH  034%=      5-min Rain = 0
KCL1 190427Z 17014KT 32/14 A2991 RMK A01 T03170141  RH  034%=      5-min Rain = 0
KCL1 190428Z 17011G16KT 32/14 A2992 RMK A01 T03170140  RH  034%=      5-min Rain = 0
KCL1 190429Z 16013KT 32/14 A2991 RMK A01 T03170140  RH  034%=      5-min Rain = 0
KCL1 190430Z 18011KT 32/14 A2992 RMK A01 T03160141  RH  034%=      5-min Rain = 0
KCL1 190431Z 18013KT 32/14 A2992 RMK A01 T03160141  RH  035%=      5-min Rain = 0
KCL1 190432Z 17015KT 32/14 A2992 RMK A01 T03160141  RH  035%=      5-min Rain = 0
KCL1 190433Z 16015G20KT 32/14 A2992 RMK A01 T03160141  RH  034%=      5-min Rain = 0
KCL1 190434Z 17011KT 32/14 A2992 RMK A01 T03170140  RH  034%=      5-min Rain = 0
KCL1 190435Z 18013KT 32/14 A2992 RMK A01 T03170140  RH  034%=      5-min Rain = 0
KCL1 190436Z 17015G20KT 32/14 A2992 RMK A01 T03170141  RH  034%=      5-min Rain = 0
KCL1 190437Z 17014G19KT 32/14 A2992 RMK A01 T03170141  RH  034%=      5-min Rain = 0
KCL1 190438Z 17016KT 32/14 A2992 RMK A01 T03170141  RH  034%=      5-min Rain = 0
KCL1 190439Z 18012KT 32/14 A2992 RMK A01 T03170141  RH  034%=      5-min Rain = 0
KCL1 190440Z 18013G19KT 32/14 A2992 RMK A01 T03170141  RH  034%=      5-min Rain = 0
KCL1 190441Z 17013G19KT 32/14 A2992 RMK A01 T03170141  RH  034%=      5-min Rain = 0
KCL1 190442Z 18013G18KT 32/14 A2992 RMK A01 T03160141  RH  034%=      5-min Rain = 0
KCL1 190443Z 17011KT 32/14 A2992 RMK A01 T03160141  RH  035%=      5-min Rain = 0
KCL1 190444Z 17014G21KT 32/14 A2992 RMK A01 T03150141  RH  035%=      5-min Rain = 0
KCL1 190445Z 17017KT 31/14 A2992 RMK A01 T03140141  RH  035%=      5-min Rain = 0
KCL1 190446Z 17012KT 31/14 A2992 RMK A01 T03140141  RH  035%=      5-min Rain = 0
KCL1 190447Z 18013KT 31/14 A2992 RMK A01 T03140141  RH  035%=      5-min Rain = 0
KCL1 190448Z 17012KT 31/14 A2992 RMK A01 T03140141  RH  035%=      5-min Rain = 0
KCL1 190449Z 17014G19KT 31/14 A2992 RMK A01 T03140141  RH  035%=      5-min Rain = 0
KCL1 190450Z 17013G18KT 31/14 A2992 RMK A01 T03140141  RH  035%=      5-min Rain = 0
KCL1 190451Z 17012G17KT 31/14 A2992 RMK A01 T03130141  RH  035%=      5-min Rain = 0
KCL1 190452Z 18011G16KT 31/14 A2992 RMK A01 T03120141  RH  035%=      5-min Rain = 0
KCL1 190453Z 17012G17KT 31/14 A2992 RMK A01 T03110141  RH  036%=      5-min Rain = 0
KCL1 190454Z 17013KT 31/14 A2992 RMK A01 T03110141  RH  036%=      5-min Rain = 0
KCL1 190455Z 17016KT 31/14 A2992 RMK A01 T03100141  RH  036%=      5-min Rain = 0
KCL1 190456Z 18014KT 31/14 A2992 RMK A01 T03100141  RH  036%=      5-min Rain = 0
KCL1 190457Z 18014KT 31/14 A2992 RMK A01 T03100141  RH  036%=      5-min Rain = 0
KCL1 190458Z 17010KT 31/14 A2992 RMK A01 T03100141  RH  036%=      5-min Rain = 0
KCL1 190459Z 16012KT 31/14 A2992 RMK A01 T03090141  RH  036%=      5-min Rain = 0

Page generated in 0.0788 seconds.